Saito, Atsushi (2026): Radiosonde measurements from station Tateno (2025-11) [dataset]. Aerological Observatory, Japan Meteorological Agency, PANGAEA, https://doi.org/10.1594/PANGAEA.988438
Always quote citation above when using data! You can download the citation in several formats below.
Published: 2026-01-08 • DOI registered: 2026-02-06
Other version:
Saito, Atsushi (2026): BSRN Station-to-archive file for station Tateno (2025-11) [dataset]. ftp://ftp.bsrn.awi.de/tat/tat1125.dat.gz
Project(s):
Coverage:
Latitude: 36.058100 * Longitude: 140.125800
Date/Time Start: 2025-11-01T00:00:00 * Date/Time End: 2025-11-30T23:59:00
Minimum ALTITUDE: 26 m * Maximum ALTITUDE: 33736 m
Event(s):
TAT (Tateno) * Latitude: 36.058100 * Longitude: 140.125800 * Date/Time: 1996-02-01T00:00:00 * Elevation: 25.0 m * Station info: https://hdl.handle.net/10013/epic.44630.d027, update 2022: Tateno.pdf * Location: Japan * Method/Device: Monitoring station (MONS) * Comment: BSRN station no: 16; Surface type: grass; Topography type: flat, urban; Horizon: doi:10.1594/PANGAEA.669527; Station scientist: Atsushi Saito (saito-atsushi@met.kishou.go.jp)
Parameter(s):
| # | Name | Short Name | Unit | Principal Investigator | Method/Device | Comment |
|---|---|---|---|---|---|---|
| 1 | DATE/TIME | Date/Time | Saito, Atsushi | Geocode | ||
| 2 | ALTITUDE | Altitude | m | Saito, Atsushi | Geocode | |
| 3 | Pressure, at given altitude | PPPP | hPa | Saito, Atsushi | Radiosonde, Meisei, iMS | |
| 4 | Temperature, air | TTT | °C | Saito, Atsushi | Radiosonde, Meisei, iMS | |
| 5 | Dew/frost point | TdTdTd | °C | Saito, Atsushi | Radiosonde, Meisei, iMS | |
| 6 | Wind direction | dd | deg | Saito, Atsushi | Radiosonde, Meisei, iMS | |
| 7 | Wind speed | ff | m/s | Saito, Atsushi | Radiosonde, Meisei, iMS |
License:
Status:
Curation Level: Enhanced curation (CurationLevelC)
Size:
29171 data points
Data
| 1 Date/Time | 2 Altitude [m] | 3 PPPP [hPa] | 4 TTT [°C] | 5 TdTdTd [°C] | 6 dd [deg] | 7 ff [m/s] |
|---|---|---|---|---|---|---|
| 2025-11-01T00:00 | 9573 | 289 | 243 | 73 | ||
| 2025-11-01T00:00 | 9738 | 282 | -40.0 | -44.1 | ||
| 2025-11-01T00:00 | 9758 | 281 | 244 | 73 | ||
| 2025-11-01T00:01 | 10116 | 267 | 245 | 74 | ||
| 2025-11-01T00:02 | 10330 | 259 | 244 | 74 | ||
| 2025-11-01T00:02 | 10514 | 252 | 246 | 72 | ||
| 2025-11-01T00:02 | 10610 | 248 | -46.6 | |||
| 2025-11-01T00:03 | 10856 | 239 | 244 | 62 | ||
| 2025-11-01T00:04 | 11222 | 226 | -46.8 | |||
| 2025-11-01T00:04 | 11274 | 224 | 233 | 60 | ||
| 2025-11-01T00:04 | 11479 | 217 | 229 | 64 | ||
| 2025-11-01T00:05 | 11864 | 205 | 226 | 66 | ||
| 2025-11-01T00:06 | 12009 | 201 | -52.7 | |||
| 2025-11-01T00:06 | 12240 | 193 | 232 | 68 | ||
| 2025-11-01T00:07 | 12609 | 183 | 235 | 67 | ||
| 2025-11-01T00:08 | 12986 | 172 | 240 | 62 | ||
| 2025-11-01T00:09 | 13024 | 171 | -58.4 | |||
| 2025-11-01T00:09 | 13319 | 163 | 238 | 55 | ||
| 2025-11-01T00:10 | 13429 | 160 | -59.1 | |||
| 2025-11-01T00:10 | 13598 | 156 | 234 | 51 | ||
| 2025-11-01T00:11 | 13904 | 149 | 229 | 50 | ||
| 2025-11-01T00:12 | 13983 | 147 | -59.7 | |||
| 2025-11-01T00:12 | 14076 | 145 | 224 | 50 | ||
| 2025-11-01T00:12 | 14241 | 141 | 221 | 53 | ||
| 2025-11-01T00:13 | 14498 | 135 | 225 | 55 | ||
| 2025-11-01T00:13 | 14543 | 134 | -64.0 | |||
| 2025-11-01T00:14 | 14795 | 129 | 229 | 56 | ||
| 2025-11-01T00:14 | 14902 | 126 | -64.9 | |||
| 2025-11-01T00:15 | 15102 | 122 | 237 | 51 | ||
| 2025-11-01T00:16 | 15396 | 117 | 236 | 44 | ||
| 2025-11-01T00:16 | 15485 | 115 | -65.3 | |||
| 2025-11-01T00:17 | 15681 | 111 | 236 | 47 | ||
| 2025-11-01T00:17 | 15766 | 110 | -66.4 | |||
| 2025-11-01T00:18 | 15914 | 107 | -66.0 | |||
| 2025-11-01T00:18 | 15931 | 107 | 241 | 46 | ||
| 2025-11-01T00:18 | 15988 | 106 | -64.7 | |||
| 2025-11-01T00:18 | 16040 | 105 | 236 | 40 | ||
| 2025-11-01T00:19 | 16233 | 102 | -63.9 | |||
| 2025-11-01T00:19 | 16318 | 100 | 231 | 40 | ||
| 2025-11-01T00:19 | 16445 | 98 | -64.7 | |||
| 2025-11-01T00:20 | 16525 | 97 | -64.5 | |||
| 2025-11-01T00:20 | 16562 | 96 | 239 | 42 | ||
| 2025-11-01T00:21 | 16866 | 92 | 244 | 30 | ||
| 2025-11-01T00:21 | 16941 | 91 | -61.0 | |||
| 2025-11-01T00:22 | 17156 | 87 | -61.3 | |||
| 2025-11-01T00:22 | 17169 | 87 | 241 | 32 | ||
| 2025-11-01T00:22 | 17395 | 84 | -60.9 | |||
| 2025-11-01T00:23 | 17485 | 83 | 235 | 27 | ||
| 2025-11-01T00:24 | 17813 | 79 | 234 | 27 | ||
| 2025-11-01T00:24 | 18043 | 76 | -63.3 | |||
| 2025-11-01T00:25 | 18135 | 75 | 253 | 25 | ||
| 2025-11-01T00:25 | 18143 | 75 | -61.0 | |||
| 2025-11-01T00:25 | 18347 | 72 | -59.2 | |||
| 2025-11-01T00:26 | 18426 | 71 | 240 | 20 | ||
| 2025-11-01T00:26 | 18489 | 71 | -59.3 | |||
| 2025-11-01T00:27 | 18779 | 67 | 227 | 14 | ||
| 2025-11-01T00:28 | 19133 | 64 | 211 | 19 | ||
| 2025-11-01T00:28 | 19183 | 63 | -58.8 | |||
| 2025-11-01T00:29 | 19467 | 60 | -60.2 | |||
| 2025-11-01T00:29 | 19488 | 60 | 219 | 23 | ||
| 2025-11-01T00:29 | 19730 | 58 | -58.5 | |||
| 2025-11-01T00:30 | 19838 | 57 | 217 | 20 | ||
| 2025-11-01T00:30 | 19962 | 56 | -58.8 | |||
| 2025-11-01T00:30 | 20091 | 55 | -57.8 | |||
| 2025-11-01T00:31 | 20182 | 54 | 226 | 18 | ||
| 2025-11-01T00:32 | 20533 | 51 | 241 | 17 | ||
| 2025-11-01T00:32 | 20657 | 50 | -59.0 | |||
| 2025-11-01T00:33 | 20861 | 48 | 238 | 17 | ||
| 2025-11-01T00:34 | 21208 | 46 | 240 | 11 | ||
| 2025-11-01T00:34 | 21433 | 44 | -58.5 | |||
| 2025-11-01T00:35 | 21550 | 43 | 249 | 12 | ||
| 2025-11-01T00:35 | 21784 | 42 | -57.6 | |||
| 2025-11-01T00:35 | 21802 | 42 | 224 | 11 | ||
| 2025-11-01T00:36 | 22130 | 40 | 249 | 11 | ||
| 2025-11-01T00:37 | 22369 | 38 | -57.8 | |||
| 2025-11-01T00:37 | 22486 | 37 | 231 | 11 | ||
| 2025-11-01T00:38 | 22590 | 37 | -56.9 | |||
| 2025-11-01T00:38 | 22675 | 36 | 252 | 10 | ||
| 2025-11-01T00:38 | 22732 | 36 | -56.1 | |||
| 2025-11-01T00:38 | 22820 | 35 | -54.2 | |||
| 2025-11-01T00:38 | 22839 | 35 | 216 | 9 | ||
| 2025-11-01T00:39 | 23115 | 34 | 231 | 10 | ||
| 2025-11-01T00:40 | 23423 | 32 | 243 | 8 | ||
| 2025-11-01T00:40 | 23603 | 31 | 242 | 6 | ||
| 2025-11-01T00:40 | 23626 | 31 | -55.8 | |||
| 2025-11-01T00:41 | 23748 | 31 | 228 | 6 | ||
| 2025-11-01T00:41 | 23984 | 30 | 215 | 7 | ||
| 2025-11-01T00:42 | 24205 | 29 | 248 | 7 | ||
| 2025-11-01T00:42 | 24295 | 28 | 260 | 5 | ||
| 2025-11-01T00:43 | 24415 | 28 | -52.1 | |||
| 2025-11-01T00:43 | 24484 | 27 | 217 | 7 | ||
| 2025-11-01T00:44 | 24873 | 26 | 191 | 7 | ||
| 2025-11-01T00:45 | 25256 | 24 | 201 | 10 | ||
| 2025-11-01T00:45 | 25363 | 24 | -52.9 | |||
| 2025-11-01T00:46 | 25587 | 23 | 219 | 9 | ||
| 2025-11-01T00:46 | 25785 | 22 | 219 | 6 | ||
| 2025-11-01T00:47 | 26112 | 21 | 218 | 6 | ||
| 2025-11-01T00:48 | 26302 | 21 | -50.6 | |||
| 2025-11-01T00:48 | 26431 | 20 | 273 | 5 | ||
| 2025-11-01T00:49 | 26626 | 20 | 294 | 3 | ||
| 2025-11-01T00:49 | 26758 | 19 | 324 | 6 | ||
| 2025-11-01T00:49 | 26860 | 19 | -51.8 | 315 | 5 | |
| 2025-11-01T11:33 | 26 | 1004 | 13.1 | 12.9 | 340 | 1 |
| 2025-11-01T11:33 | 32 | 1003 | 13.6 | 12.5 | 0 | 0 |
| 2025-11-01T11:33 | 68 | 999 | 16.6 | 14.4 | ||
| 2025-11-01T11:33 | 105 | 995 | 17.5 | 14.4 | ||
| 2025-11-01T11:33 | 126 | 992 | 17.1 | 14.0 | ||
| 2025-11-01T11:33 | 136 | 991 | 265 | 5 | ||
| 2025-11-01T11:34 | 208 | 983 | 17.6 | 13.7 | ||
| 2025-11-01T11:34 | 307 | 971 | 17.4 | 12.7 | ||
| 2025-11-01T11:34 | 405 | 960 | 232 | 7 | ||
| 2025-11-01T11:34 | 474 | 953 | 17.0 | 10.4 | ||
| 2025-11-01T11:35 | 626 | 936 | 256 | 8 | ||
| 2025-11-01T11:35 | 754 | 922 | 14.7 | 8.2 | ||
| 2025-11-01T11:35 | 888 | 907 | 13.9 | 6.3 | ||
| 2025-11-01T11:35 | 919 | 904 | 274 | 6 | ||
| 2025-11-01T11:36 | 1103 | 885 | 277 | 8 | ||
| 2025-11-01T11:36 | 1223 | 872 | 10.8 | 4.3 | ||
| 2025-11-01T11:36 | 1278 | 866 | 287 | 7 | ||
| 2025-11-01T11:37 | 1296 | 864 | 10.2 | 3.9 | ||
| 2025-11-01T11:37 | 1419 | 852 | 284 | 8 | ||
| 2025-11-01T11:38 | 1675 | 825 | 6.6 | 2.3 | ||
| 2025-11-01T11:38 | 1754 | 818 | 283 | 10 | ||
| 2025-11-01T11:38 | 1873 | 806 | 5.3 | 0.7 | ||
| 2025-11-01T11:38 | 1994 | 794 | 272 | 9 | ||
| 2025-11-01T11:38 | 2007 | 793 | 4.7 | 0.1 | ||
| 2025-11-01T11:39 | 2136 | 780 | 4.3 | 0.3 | ||
| 2025-11-01T11:39 | 2329 | 762 | 243 | 9 | ||
| 2025-11-01T11:39 | 2335 | 761 | 2.6 | -0.3 | ||
| 2025-11-01T11:40 | 2497 | 746 | 1.3 | -1.6 | ||
| 2025-11-01T11:40 | 2547 | 742 | 1.2 | -3.3 | ||
| 2025-11-01T11:40 | 2667 | 731 | 254 | 9 | ||
| 2025-11-01T11:41 | 2726 | 725 | -0.1 | -5.1 | ||
| 2025-11-01T11:41 | 2879 | 712 | 270 | 14 | ||
| 2025-11-01T11:41 | 2955 | 705 | -1.2 | -10.3 | ||
| 2025-11-01T11:42 | 3147 | 688 | -1.8 | -13.0 | ||
| 2025-11-01T11:42 | 3216 | 682 | 275 | 15 | ||
| 2025-11-01T11:42 | 3278 | 677 | -2.3 | -15.4 | ||
| 2025-11-01T11:42 | 3381 | 668 | -2.7 | -19.1 | ||
| 2025-11-01T11:43 | 3558 | 653 | 271 | 18 | ||
| 2025-11-01T11:44 | 3848 | 630 | 264 | 16 | ||
| 2025-11-01T11:44 | 4088 | 611 | -6.8 | -32.4 | ||
| 2025-11-01T11:45 | 4223 | 600 | 259 | 18 | ||
| 2025-11-01T11:45 | 4409 | 586 | -9.6 | -33.8 | ||
| 2025-11-01T11:46 | 4524 | 577 | -10.2 | -34.3 | ||
| 2025-11-01T11:46 | 4624 | 570 | 273 | 21 | ||
| 2025-11-01T11:46 | 4686 | 565 | -10.8 | -40.1 | ||
| 2025-11-01T11:46 | 4897 | 550 | -11.5 | -45.8 | ||
| 2025-11-01T11:47 | 4965 | 545 | 262 | 26 | ||
| 2025-11-01T11:47 | 5104 | 535 | -13.0 | -46.9 | ||
| 2025-11-01T11:48 | 5350 | 518 | 265 | 24 | ||
| 2025-11-01T11:49 | 5706 | 494 | 264 | 25 | ||
| 2025-11-01T11:50 | 6059 | 471 | 264 | 26 | ||
| 2025-11-01T11:50 | 6100 | 468 | -21.6 | -47.2 | ||
| 2025-11-01T11:50 | 6304 | 455 | 258 | 26 | ||
| 2025-11-01T11:51 | 6448 | 447 | -24.0 | -50.2 | ||
| 2025-11-01T11:51 | 6670 | 433 | 257 | 34 | ||
| 2025-11-01T11:52 | 6775 | 427 | -25.9 | -53.0 | ||
| 2025-11-01T11:52 | 6813 | 425 | 253 | 35 | ||
| 2025-11-01T11:52 | 6968 | 416 | 255 | 35 | ||
| 2025-11-01T11:52 | 7033 | 412 | -27.9 | -54.5 | ||
| 2025-11-01T11:53 | 7245 | 400 | 256 | 35 | ||
| 2025-11-01T11:53 | 7329 | 395 | -29.7 | -57.4 | ||
| 2025-11-01T11:53 | 7360 | 393 | 257 | 38 | ||
| 2025-11-01T11:54 | 7516 | 385 | 252 | 38 | ||
| 2025-11-01T11:54 | 7786 | 370 | 249 | 42 | ||
| 2025-11-01T11:55 | 8118 | 353 | -33.6 | -62.1 | ||
| 2025-11-01T11:55 | 8161 | 351 | 248 | 41 | ||
| 2025-11-01T11:56 | 8266 | 346 | -34.5 | -62.8 | ||
| 2025-11-01T11:56 | 8427 | 338 | -35.2 | -63.3 | ||
| 2025-11-01T11:56 | 8543 | 333 | 241 | 46 | ||
| 2025-11-01T11:57 | 8747 | 323 | -37.8 | -67.3 | ||
| 2025-11-01T11:57 | 8881 | 317 | -37.9 | -67.4 | ||
| 2025-11-01T11:57 | 8900 | 316 | 239 | 51 | ||
| 2025-11-01T11:58 | 8999 | 311 | -38.6 | -65.8 | ||
| 2025-11-01T11:58 | 9025 | 310 | 239 | 54 | ||
| 2025-11-01T11:58 | 9175 | 303 | 238 | 57 | ||
| 2025-11-01T11:59 | 9520 | 289 | -40.0 | -65.3 | ||
| 2025-11-01T11:59 | 9590 | 286 | 235 | 59 | ||
| 2025-11-01T12:00 | 9988 | 269 | 237 | 64 | ||
| 2025-11-01T12:00 | 10115 | 264 | -43.6 | |||
| 2025-11-01T12:01 | 10318 | 256 | -44.2 | |||
| 2025-11-01T12:01 | 10370 | 254 | 236 | 64 | ||
| 2025-11-01T12:02 | 10679 | 243 | 237 | 65 | ||
| 2025-11-01T12:02 | 10872 | 236 | 239 | 68 | ||
| 2025-11-01T12:03 | 11018 | 231 | -47.0 | |||
| 2025-11-01T12:03 | 11038 | 230 | 239 | 64 | ||
| 2025-11-01T12:04 | 11325 | 220 | 239 | 63 | ||
| 2025-11-01T12:04 | 11426 | 217 | -48.5 | |||
| 2025-11-01T12:04 | 11656 | 210 | 238 | 65 | ||
| 2025-11-01T12:05 | 11811 | 205 | -51.2 | |||
| 2025-11-01T12:05 | 11979 | 199 | 239 | 63 | ||
| 2025-11-01T12:06 | 12348 | 188 | 241 | 62 | ||
| 2025-11-01T12:07 | 12575 | 182 | 242 | 62 | ||
| 2025-11-01T12:08 | 12758 | 177 | -54.4 | |||
| 2025-11-01T12:08 | 12876 | 173 | 242 | 62 | ||
| 2025-11-01T12:09 | 13178 | 165 | 239 | 62 | ||
| 2025-11-01T12:10 | 13373 | 160 | -57.5 | |||
| 2025-11-01T12:10 | 13510 | 157 | 240 | 63 | ||
| 2025-11-01T12:11 | 13776 | 150 | -59.6 | |||
| 2025-11-01T12:11 | 13866 | 148 | 244 | 61 | ||
| 2025-11-01T12:12 | 14078 | 143 | -59.8 | |||
| 2025-11-01T12:12 | 14191 | 141 | 247 | 55 | ||
| 2025-11-01T12:12 | 14249 | 139 | -59.4 | |||
| 2025-11-01T12:13 | 14458 | 135 | -58.9 | |||
| 2025-11-01T12:13 | 14498 | 134 | 246 | 47 | ||
| 2025-11-01T12:14 | 14793 | 128 | -58.6 | |||
| 2025-11-01T12:14 | 14836 | 127 | 244 | 41 | ||
| 2025-11-01T12:14 | 15010 | 123 | 234 | 41 | ||
| 2025-11-01T12:15 | 15403 | 116 | 230 | 46 | ||
| 2025-11-01T12:15 | 15465 | 115 | -63.8 | |||
| 2025-11-01T12:16 | 15573 | 113 | -63.3 | |||
| 2025-11-01T12:16 | 15730 | 110 | 237 | 49 | ||
| 2025-11-01T12:17 | 15890 | 107 | -63.2 | |||
| 2025-11-01T12:17 | 15935 | 106 | 241 | 44 | ||
| 2025-11-01T12:18 | 16236 | 101 | 244 | 40 | ||
| 2025-11-01T12:18 | 16416 | 98 | 237 | 37 | ||
| 2025-11-01T12:18 | 16436 | 98 | -62.9 | |||
| 2025-11-01T12:19 | 16693 | 94 | 240 | 39 | ||
| 2025-11-01T12:20 | 16890 | 91 | -63.1 | |||
| 2025-11-01T12:20 | 17001 | 89 | 253 | 35 | ||
| 2025-11-01T12:21 | 17099 | 88 | -60.8 | |||
| 2025-11-01T12:21 | 17301 | 85 | 238 | 25 | ||
| 2025-11-01T12:21 | 17370 | 84 | -59.7 | |||
| 2025-11-01T12:22 | 17532 | 82 | 236 | 29 | ||
| 2025-11-01T12:22 | 17572 | 82 | -59.4 | |||
| 2025-11-01T12:23 | 17847 | 78 | 227 | 28 | ||
| 2025-11-01T12:23 | 17902 | 77 | -61.1 | |||
| 2025-11-01T12:24 | 18198 | 74 | -60.3 | 233 | 24 | |
| 2025-11-01T12:24 | 18292 | 73 | -58.8 | |||
| 2025-11-01T12:25 | 18492 | 70 | 208 | 19 | ||
| 2025-11-01T12:26 | 18814 | 67 | 208 | 21 | ||
| 2025-11-01T12:26 | 18877 | 66 | -60.8 | |||
| 2025-11-01T12:27 | 19156 | 63 | 225 | 24 | ||
| 2025-11-01T12:27 | 19223 | 63 | -61.8 | |||
| 2025-11-01T12:28 | 19423 | 61 | -60.7 | |||
| 2025-11-01T12:28 | 19498 | 60 | 231 | 24 | ||
| 2025-11-01T12:28 | 19686 | 58 | -61.6 | |||
| 2025-11-01T12:29 | 19809 | 57 | 240 | 26 | ||
| 2025-11-01T12:29 | 19908 | 56 | -60.3 | |||
| 2025-11-01T12:30 | 20157 | 54 | 233 | 28 | ||
| 2025-11-01T12:30 | 20311 | 53 | -57.7 | |||
| 2025-11-01T12:30 | 20383 | 52 | 249 | 25 | ||
| 2025-11-01T12:31 | 20554 | 51 | -55.1 | |||
| 2025-11-01T12:31 | 20566 | 50 | 252 | 14 | ||
| 2025-11-01T12:31 | 20787 | 49 | 213 | 11 | ||
| 2025-11-01T12:32 | 21066 | 47 | 200 | 16 | ||
| 2025-11-01T12:32 | 21093 | 46 | -56.8 | |||
| 2025-11-01T12:33 | 21414 | 44 | 202 | 19 | ||
| 2025-11-01T12:34 | 21586 | 43 | -59.2 | |||
| 2025-11-01T12:34 | 21615 | 43 | 211 | 19 | ||
| 2025-11-01T12:34 | 21734 | 42 | -57.6 | |||
| 2025-11-01T12:34 | 21810 | 41 | 208 | 14 | ||
| 2025-11-01T12:35 | 22092 | 40 | 194 | 13 | ||
| 2025-11-01T12:36 | 22255 | 39 | 189 | 10 | ||
| 2025-11-01T12:36 | 22337 | 38 | -55.2 | |||
| 2025-11-01T12:37 | 22628 | 36 | 225 | 9 | ||
| 2025-11-01T12:37 | 22741 | 36 | 224 | 7 | ||
| 2025-11-01T12:37 | 22758 | 36 | -51.7 | |||
| 2025-11-01T12:38 | 22978 | 35 | 185 | 8 | ||
| 2025-11-01T12:39 | 23303 | 33 | 209 | 11 | ||
| 2025-11-01T12:39 | 23363 | 33 | -53.3 | |||
| 2025-11-01T12:39 | 23584 | 31 | 262 | 11 | ||
| 2025-11-01T12:40 | 23836 | 30 | -53.3 | |||
| 2025-11-01T12:40 | 23965 | 30 | 238 | 12 | ||
| 2025-11-01T12:41 | 24142 | 29 | -52.6 | |||
| 2025-11-01T12:41 | 24188 | 29 | 249 | 6 | ||
| 2025-11-01T12:41 | 24279 | 28 | 217 | 4 | ||
| 2025-11-01T12:41 | 24395 | 28 | -51.6 | 155 | 5 | |
| 2025-11-01T12:42 | 24587 | 27 | 161 | 9 | ||
| 2025-11-01T12:43 | 24929 | 26 | 238 | 4 | ||
| 2025-11-01T12:43 | 25057 | 25 | 271 | 1 | ||
| 2025-11-01T12:43 | 25191 | 25 | 325 | 3 | ||
| 2025-11-01T12:44 | 25292 | 24 | 358 | 1 | ||
| 2025-11-01T12:44 | 25403 | 24 | 145 | 3 | ||
| 2025-11-01T12:44 | 25511 | 23 | 164 | 2 | ||
| 2025-11-01T12:45 | 25682 | 23 | 195 | 4 | ||
| 2025-11-01T12:45 | 25911 | 22 | 192 | 9 | ||
| 2025-11-01T12:46 | 26124 | 21 | 216 | 4 | ||
| 2025-11-01T12:46 | 26277 | 21 | 277 | 2 | ||
| 2025-11-01T12:46 | 26305 | 21 | -52.4 | |||
| 2025-11-01T12:47 | 26467 | 20 | 215 | 3 | ||
| 2025-11-01T12:47 | 26648 | 20 | -52.8 | 216 | 8 | |
| 2025-11-01T23:33 | 26 | 1010 | 12.1 | 10.7 | 260 | 2 |
| 2025-11-01T23:33 | 32 | 1009 | 12.0 | 10.9 | 0 | 0 |
| 2025-11-01T23:33 | 94 | 1002 | 10.7 | 10.1 | ||
| 2025-11-01T23:33 | 132 | 997 | 10.7 | 9.3 | ||
| 2025-11-01T23:33 | 177 | 992 | 14.6 | 7.6 | ||
| 2025-11-01T23:34 | 206 | 988 | 15.2 | 7.2 | ||
| 2025-11-01T23:34 | 235 | 985 | 65 | 2 | ||
| 2025-11-01T23:34 | 269 | 981 | 15.7 | 6.2 | ||
| 2025-11-01T23:34 | 388 | 968 | 61 | 5 | ||
| 2025-11-01T23:34 | 427 | 963 | 15.4 | 5.3 | ||
| 2025-11-01T23:35 | 593 | 944 | 71 | 4 | ||
| 2025-11-01T23:35 | 663 | 936 | 13.8 | 5.2 | ||
| 2025-11-01T23:35 | 771 | 925 | 55 | 2 | ||
| 2025-11-01T23:35 | 820 | 919 | 12.8 | 3.2 | ||
| 2025-11-01T23:36 | 892 | 911 | 325 | 3 | ||
| 2025-11-01T23:36 | 1024 | 897 | 316 | 3 | ||
| 2025-11-01T23:36 | 1138 | 885 | 316 | 3 | ||
| 2025-11-01T23:37 | 1214 | 877 | 10.0 | 2.6 | ||
| 2025-11-01T23:37 | 1290 | 869 | 227 | 3 | ||
| 2025-11-01T23:38 | 1565 | 840 | 217 | 2 | ||
| 2025-11-01T23:38 | 1872 | 810 | 3.9 | 3.3 | ||
| 2025-11-01T23:39 | 1905 | 806 | 170 | 2 | ||
| 2025-11-01T23:39 | 1960 | 801 | 3.7 | 3.1 | ||
| 2025-11-01T23:39 | 2088 | 789 | 3.1 | 0.7 | ||
| 2025-11-01T23:39 | 2150 | 782 | 2.8 | -1.7 | ||
| 2025-11-01T23:39 | 2156 | 782 | 182 | 4 | ||
| 2025-11-01T23:40 | 2248 | 773 | 188 | 5 | ||
| 2025-11-01T23:40 | 2331 | 765 | 2.5 | -5.4 | ||
| 2025-11-01T23:40 | 2343 | 764 | 211 | 6 | ||
| 2025-11-01T23:40 | 2479 | 751 | 202 | 8 | ||
| 2025-11-01T23:41 | 2680 | 733 | -0.2 | -8.2 | ||
| 2025-11-01T23:41 | 2703 | 731 | 214 | 10 | ||
| 2025-11-01T23:41 | 2883 | 714 | -1.0 | -12.0 | ||
| 2025-11-01T23:42 | 2992 | 705 | -1.0 | -16.8 | ||
| 2025-11-01T23:42 | 3049 | 700 | 242 | 14 | ||
| 2025-11-01T23:42 | 3121 | 693 | -1.9 | -18.0 | ||
| 2025-11-01T23:43 | 3258 | 681 | -2.1 | -17.4 | 254 | 18 |
| 2025-11-01T23:43 | 3601 | 653 | 254 | 25 | ||
| 2025-11-01T23:44 | 3665 | 647 | -3.6 | -21.8 | ||
| 2025-11-01T23:44 | 3949 | 624 | -5.4 | -24.3 | ||
| 2025-11-01T23:45 | 3955 | 624 | 254 | 26 | ||
| 2025-11-01T23:46 | 4317 | 596 | 246 | 27 | ||
| 2025-11-01T23:46 | 4457 | 585 | -8.8 | -33.1 | ||
| 2025-11-01T23:46 | 4510 | 581 | -8.7 | -36.0 | ||
| 2025-11-01T23:46 | 4671 | 569 | 250 | 31 | ||
| 2025-11-01T23:47 | 4862 | 555 | -10.8 | -41.5 | ||
| 2025-11-01T23:47 | 5021 | 544 | 250 | 32 | ||
| 2025-11-01T23:48 | 5363 | 520 | 249 | 32 | ||
| 2025-11-01T23:49 | 5576 | 505 | -15.9 | -49.0 | ||
| 2025-11-01T23:50 | 5717 | 496 | 245 | 33 | ||
| 2025-11-01T23:50 | 5856 | 487 | 242 | 35 | ||
| 2025-11-01T23:50 | 5974 | 479 | -19.0 | -46.4 | ||
| 2025-11-01T23:51 | 6196 | 465 | 239 | 35 | ||
| 2025-11-01T23:52 | 6518 | 445 | 239 | 38 | ||
| 2025-11-01T23:53 | 6778 | 429 | -26.5 | -45.4 | ||
| 2025-11-01T23:53 | 6883 | 423 | -27.4 | -35.1 | ||
| 2025-11-01T23:53 | 6902 | 422 | 239 | 37 | ||
| 2025-11-01T23:53 | 6960 | 419 | -27.8 | -31.4 | ||
| 2025-11-01T23:53 | 7060 | 413 | -26.2 | -28.0 | ||
| 2025-11-01T23:54 | 7215 | 404 | -25.4 | -27.1 | ||
| 2025-11-01T23:54 | 7276 | 401 | 244 | 47 | ||
| 2025-11-01T23:54 | 7463 | 390 | -26.2 | -27.6 | ||
| 2025-11-01T23:55 | 7648 | 381 | 240 | 50 | ||
| 2025-11-01T23:55 | 7759 | 375 | -26.6 | -28.0 | ||
| 2025-11-01T23:56 | 7926 | 366 | 240 | 53 | ||
| 2025-11-01T23:57 | 8306 | 347 | 238 | 57 | ||
| 2025-11-01T23:57 | 8313 | 347 | -30.0 | -30.7 | ||
| 2025-11-01T23:57 | 8441 | 341 | -30.6 | -31.5 | ||
| 2025-11-01T23:57 | 8508 | 338 | -30.4 | -32.6 | ||
| 2025-11-01T23:57 | 8539 | 336 | 240 | 63 | ||
| 2025-11-01T23:58 | 8735 | 327 | -32.3 | -35.4 | ||
| 2025-11-01T23:58 | 8896 | 319 | 238 | 63 | ||
| 2025-11-01T23:58 | 8918 | 318 | -33.6 | -36.5 | ||
| 2025-11-01T23:59 | 9037 | 313 | -34.7 | -38.7 | ||
| 2025-11-01T23:59 | 9268 | 303 | 239 | 63 | ||
| 2025-11-02T00:00 | 9523 | 292 | -38.5 | -41.3 | ||
| 2025-11-02T00:00 | 9656 | 286 | 237 | 64 | ||
| 2025-11-02T00:00 | 9723 | 283 | -40.0 | -42.1 | ||
| 2025-11-02T00:01 | 9960 | 274 | 240 | 64 | ||
| 2025-11-02T00:01 | 10131 | 267 | 239 | 65 | ||
| 2025-11-02T00:02 | 10334 | 259 | -45.4 | |||
| 2025-11-02T00:02 | 10500 | 252 | 241 | 68 | ||
| 2025-11-02T00:03 | 10891 | 238 | 238 | 70 | ||
| 2025-11-02T00:04 | 11251 | 225 | 239 | 71 | ||
| 2025-11-02T00:05 | 11363 | 221 | 240 | 70 | ||
| 2025-11-02T00:06 | 11690 | 210 | 237 | 71 | ||
| 2025-11-02T00:06 | 11966 | 201 | 239 | 71 | ||
| 2025-11-02T00:06 | 11978 | 201 | -57.7 | |||
| 2025-11-02T00:07 | 12317 | 190 | 238 | 65 | ||
| 2025-11-02T00:07 | 12334 | 190 | -58.2 | |||
| 2025-11-02T00:08 | 12570 | 183 | -58.6 | |||
| 2025-11-02T00:08 | 12655 | 180 | 241 | 62 | ||
| 2025-11-02T00:09 | 12999 | 171 | 246 | 61 | ||
| 2025-11-02T00:10 | 13254 | 164 | -60.0 | |||
| 2025-11-02T00:10 | 13324 | 162 | 245 | 59 | ||
| 2025-11-02T00:11 | 13512 | 157 | -60.1 | |||
| 2025-11-02T00:11 | 13616 | 154 | 249 | 56 | ||
| 2025-11-02T00:11 | 13667 | 153 | -61.0 | |||
| 2025-11-02T00:12 | 13915 | 147 | 241 | 56 | ||
| 2025-11-02T00:13 | 14131 | 142 | -62.6 | |||
| 2025-11-02T00:13 | 14211 | 140 | 242 | 60 | ||
| 2025-11-02T00:14 | 14522 | 133 | 247 | 57 | ||
| 2025-11-02T00:15 | 14669 | 130 | -63.4 | |||
| 2025-11-02T00:15 | 14831 | 127 | 239 | 52 | ||
| 2025-11-02T00:15 | 14881 | 126 | -62.4 | |||
| 2025-11-02T00:16 | 15124 | 121 | -63.3 | |||
| 2025-11-02T00:16 | 15129 | 121 | 241 | 51 | ||
| 2025-11-02T00:17 | 15434 | 115 | 246 | 52 | ||
| 2025-11-02T00:18 | 15611 | 112 | -63.5 | |||
| 2025-11-02T00:18 | 15747 | 109 | 247 | 47 | ||
| 2025-11-02T00:19 | 16000 | 105 | -61.8 | |||
| 2025-11-02T00:19 | 16057 | 104 | 239 | 41 | ||
| 2025-11-02T00:20 | 16241 | 101 | -62.3 | |||
| 2025-11-02T00:20 | 16374 | 99 | 235 | 43 | ||
| 2025-11-02T00:21 | 16488 | 97 | -63.0 | |||
| 2025-11-02T00:21 | 16493 | 97 | 239 | 42 | ||
| 2025-11-02T00:21 | 16661 | 94 | 247 | 37 | ||
| 2025-11-02T00:22 | 16801 | 92 | 250 | 35 | ||
| 2025-11-02T00:22 | 16958 | 90 | -61.8 | |||
| 2025-11-02T00:22 | 17018 | 89 | 245 | 29 | ||
| 2025-11-02T00:23 | 17326 | 85 | 247 | 29 | ||
| 2025-11-02T00:24 | 17632 | 81 | 244 | 22 | ||
| 2025-11-02T00:25 | 17817 | 78 | 233 | 23 | ||
| 2025-11-02T00:25 | 17848 | 78 | -63.7 | |||
| 2025-11-02T00:26 | 18018 | 76 | 228 | 23 | ||
| 2025-11-02T00:26 | 18222 | 73 | 216 | 23 | ||
| 2025-11-02T00:27 | 18342 | 72 | -64.6 | |||
| 2025-11-02T00:27 | 18549 | 69 | -63.6 | |||
| 2025-11-02T00:27 | 18558 | 69 | 234 | 25 | ||
| 2025-11-02T00:28 | 18798 | 67 | 244 | 24 | ||
| 2025-11-02T00:28 | 18966 | 65 | 225 | 21 | ||
| 2025-11-02T00:29 | 19064 | 64 | -59.8 | |||
| 2025-11-02T00:29 | 19187 | 63 | 239 | 27 | ||
| 2025-11-02T00:30 | 19443 | 60 | 230 | 25 | ||
| 2025-11-02T00:31 | 19603 | 59 | -55.9 | |||
| 2025-11-02T00:31 | 19769 | 57 | 241 | 21 | ||
| 2025-11-02T00:32 | 19993 | 55 | 234 | 21 | ||
| 2025-11-02T00:32 | 20157 | 54 | 233 | 17 | ||
| 2025-11-02T00:32 | 20197 | 53 | -55.3 | |||
| 2025-11-02T00:33 | 20503 | 51 | 225 | 11 | ||
| 2025-11-02T00:33 | 20554 | 51 | -54.1 | |||
| 2025-11-02T00:34 | 20850 | 48 | 222 | 14 | ||
| 2025-11-02T00:35 | 21187 | 46 | 229 | 15 | ||
| 2025-11-02T00:36 | 21395 | 44 | -57.7 | |||
| 2025-11-02T00:36 | 21481 | 44 | 241 | 14 | ||
| 2025-11-02T00:37 | 21839 | 41 | 221 | 11 | ||
| 2025-11-02T00:37 | 21947 | 41 | -60.2 | |||
| 2025-11-02T00:38 | 22025 | 40 | 217 | 12 | ||
| 2025-11-02T00:38 | 22118 | 39 | -56.0 | |||
| 2025-11-02T00:38 | 22282 | 38 | 227 | 16 | ||
| 2025-11-02T00:39 | 22536 | 37 | 251 | 15 | ||
| 2025-11-02T00:40 | 22857 | 35 | 226 | 9 | ||
| 2025-11-02T00:41 | 23116 | 34 | 242 | 8 | ||
| 2025-11-02T00:41 | 23269 | 33 | 247 | 6 | ||
| 2025-11-02T00:42 | 23425 | 32 | 200 | 9 | ||
| 2025-11-02T00:42 | 23627 | 31 | 185 | 14 | ||
| 2025-11-02T00:43 | 23861 | 30 | 167 | 7 | ||
| 2025-11-02T00:43 | 23900 | 30 | -54.5 | |||
| 2025-11-02T00:43 | 24076 | 29 | 176 | 8 | ||
| 2025-11-02T00:44 | 24253 | 28 | -54.4 | |||
| 2025-11-02T00:44 | 24370 | 28 | 212 | 10 | ||
| 2025-11-02T00:45 | 24535 | 27 | 199 | 4 | ||
| 2025-11-02T00:45 | 24657 | 27 | 144 | 5 | ||
| 2025-11-02T00:45 | 24733 | 26 | -52.1 | |||
| 2025-11-02T00:45 | 24828 | 26 | 170 | 8 | ||
| 2025-11-02T00:46 | 25007 | 25 | 210 | 10 | ||
| 2025-11-02T00:46 | 25137 | 25 | -51.3 | |||
| 2025-11-02T00:46 | 25166 | 25 | 208 | 7 | ||
| 2025-11-02T00:47 | 25298 | 24 | 241 | 8 | ||
| 2025-11-02T00:47 | 25492 | 23 | 230 | 5 | ||
| 2025-11-02T00:47 | 25603 | 23 | 247 | 4 | ||
| 2025-11-02T00:48 | 25689 | 23 | -52.1 | |||
| 2025-11-02T00:48 | 25715 | 23 | 246 | 3 | ||
| 2025-11-02T00:48 | 25801 | 22 | 285 | 4 | ||
| 2025-11-02T00:48 | 25951 | 22 | 273 | 4 | ||
| 2025-11-02T00:49 | 26100 | 21 | 191 | 4 | ||
| 2025-11-02T00:49 | 26222 | 21 | 199 | 5 | ||
| 2025-11-02T00:49 | 26316 | 21 | -52.3 | |||
| 2025-11-02T00:50 | 26541 | 20 | 298 | 5 | ||
| 2025-11-02T00:50 | 26740 | 19 | 321 | 5 | ||
| 2025-11-02T00:51 | 26806 | 19 | -51.6 | |||
| 2025-11-02T00:51 | 26841 | 19 | 315 | 2 | ||
| 2025-11-02T00:51 | 26980 | 19 | 87 | 3 | ||
| 2025-11-02T00:52 | 27303 | 18 | 116 | 5 | ||
| 2025-11-02T00:53 | 27600 | 17 | 94 | 5 | ||
| 2025-11-02T00:53 | 27830 | 16 | 96 | 1 | ||
| 2025-11-02T00:54 | 28110 | 16 | 131 | 2 | ||
| 2025-11-02T00:54 | 28275 | 15 | -57.4 | |||
| 2025-11-02T00:55 | 28401 | 15 | 158 | 6 | ||
| 2025-11-02T00:55 | 28486 | 15 | -57.0 | |||
| 2025-11-02T00:56 | 28799 | 14 | 279 | 8 | ||
| 2025-11-02T00:56 | 29033 | 13 | 293 | 8 | ||
| 2025-11-02T00:57 | 29227 | 13 | 286 | 2 | ||
| 2025-11-02T00:57 | 29327 | 13 | 271 | 4 | ||
| 2025-11-02T00:57 | 29428 | 13 | -52.2 | |||
| 2025-11-02T00:58 | 29535 | 12 | 328 | 8 | ||
| 2025-11-02T00:58 | 29637 | 12 | -50.2 | |||
| 2025-11-02T00:58 | 29748 | 12 | 36 | 7 | ||
| 2025-11-02T00:59 | 30078 | 11 | 135 | 3 | ||
| 2025-11-02T01:00 | 30370 | 11 | 189 | 5 | ||
| 2025-11-02T01:00 | 30551 | 11 | 203 | 2 | ||
| 2025-11-02T01:00 | 30739 | 10 | -53.3 | |||
| 2025-11-02T01:01 | 30802 | 10 | 257 | 3 | ||
| 2025-11-02T01:01 | 30931 | 10 | 0 | 0 | ||
| 2025-11-02T01:01 | 31058 | 10 | -51.0 | |||
| 2025-11-02T01:02 | 31205 | 10 | -51.6 | 36 | 8 | |
| 2025-11-02T11:33 | 26 | 1008 | 11.5 | 11.5 | 90 | 0 |
| 2025-11-02T11:33 | 32 | 1007 | 12.0 | 12.0 | 0 | 0 |
| 2025-11-02T11:33 | 77 | 1002 | 16.0 | 11.4 | ||
| 2025-11-02T11:33 | 163 | 992 | 16.9 | 10.5 | ||
| 2025-11-02T11:34 | 379 | 967 | 216 | 1 | ||
| 2025-11-02T11:35 | 554 | 947 | 251 | 3 | ||
| 2025-11-02T11:35 | 770 | 923 | 12.3 | 7.8 | ||
| 2025-11-02T11:35 | 793 | 920 | 258 | 3 | ||
| 2025-11-02T11:35 | 868 | 912 | 12.4 | 5.6 | ||
| 2025-11-02T11:36 | 942 | 904 | 298 | 3 | ||
| 2025-11-02T11:36 | 1055 | 892 | 320 | 5 | ||
| 2025-11-02T11:36 | 1156 | 881 | 10.5 | 2.3 | ||
| 2025-11-02T11:36 | 1207 | 876 | 302 | 6 | ||
| 2025-11-02T11:37 | 1409 | 855 | 8.5 | 0.5 | ||
| 2025-11-02T11:37 | 1490 | 847 | 283 | 9 | ||
| 2025-11-02T11:38 | 1605 | 835 | 7.5 | -0.2 | ||
| 2025-11-02T11:38 | 1828 | 812 | 249 | 5 | ||
| 2025-11-02T11:39 | 1941 | 801 | 235 | 6 | ||
| 2025-11-02T11:39 | 1947 | 801 | 4.8 | -0.4 | ||
| 2025-11-02T11:39 | 2059 | 790 | 4.4 | -2.9 | ||
| 2025-11-02T11:40 | 2297 | 767 | 241 | 5 | ||
| 2025-11-02T11:40 | 2468 | 751 | 1.2 | -6.2 | ||
| 2025-11-02T11:41 | 2672 | 732 | 270 | 11 | ||
| 2025-11-02T11:41 | 2678 | 731 | 0.2 | -10.1 | ||
| 2025-11-02T11:41 | 2833 | 717 | 235 | 10 | ||
| 2025-11-02T11:41 | 2993 | 703 | -0.6 | -13.2 | ||
| 2025-11-02T11:42 | 3084 | 695 | 249 | 16 | ||
| 2025-11-02T11:42 | 3404 | 668 | -2.5 | -23.0 | ||
| 2025-11-02T11:42 | 3430 | 666 | 254 | 22 | ||
| 2025-11-02T11:43 | 3635 | 649 | -4.0 | -25.5 | ||
| 2025-11-02T11:43 | 3704 | 643 | 246 | 24 | ||
| 2025-11-02T11:43 | 3761 | 638 | -4.5 | -28.8 | ||
| 2025-11-02T11:44 | 4052 | 615 | 243 | 28 | ||
| 2025-11-02T11:44 | 4172 | 606 | -7.9 | -31.6 | ||
| 2025-11-02T11:45 | 4401 | 588 | -9.6 | -33.8 | ||
| 2025-11-02T11:45 | 4419 | 587 | 246 | 29 | ||
| 2025-11-02T11:45 | 4489 | 581 | -9.8 | -35.8 | ||
| 2025-11-02T11:46 | 4786 | 559 | 241 | 30 | ||
| 2025-11-02T11:47 | 4971 | 546 | -13.4 | -40.8 | ||
| 2025-11-02T11:47 | 5170 | 532 | 236 | 31 | ||
| 2025-11-02T11:47 | 5196 | 530 | -15.1 | -46.4 | ||
| 2025-11-02T11:48 | 5436 | 513 | 236 | 30 | ||
| 2025-11-02T11:49 | 5826 | 487 | 233 | 33 | ||
| 2025-11-02T11:49 | 6093 | 470 | -22.6 | -44.3 | ||
| 2025-11-02T11:50 | 6241 | 460 | 232 | 36 | ||
| 2025-11-02T11:51 | 6666 | 434 | 233 | 37 | ||
| 2025-11-02T11:51 | 6912 | 420 | -28.0 | -54.6 | ||
| 2025-11-02T11:52 | 7023 | 413 | -28.6 | -55.1 | ||
| 2025-11-02T11:52 | 7068 | 411 | 234 | 40 | ||
| 2025-11-02T11:52 | 7154 | 406 | -29.4 | -55.7 | ||
| 2025-11-02T11:52 | 7254 | 400 | -27.9 | -57.8 | ||
| 2025-11-02T11:53 | 7426 | 391 | 245 | 49 | ||
| 2025-11-02T11:54 | 7690 | 376 | -29.1 | -51.2 | ||
| 2025-11-02T11:54 | 7737 | 374 | 239 | 54 | ||
| 2025-11-02T11:54 | 7887 | 366 | -29.3 | -46.1 | ||
| 2025-11-02T11:55 | 8006 | 360 | -29.6 | -43.0 | ||
| 2025-11-02T11:55 | 8048 | 358 | 237 | 66 | ||
| 2025-11-02T11:55 | 8111 | 355 | -29.0 | -47.5 | ||
| 2025-11-02T11:55 | 8220 | 350 | -29.4 | -54.4 | ||
| 2025-11-02T11:56 | 8312 | 345 | -29.9 | -54.8 | ||
| 2025-11-02T11:56 | 8369 | 342 | -29.7 | -55.9 | ||
| 2025-11-02T11:56 | 8402 | 341 | 233 | 67 | ||
| 2025-11-02T11:56 | 8487 | 337 | -29.5 | -57.2 | ||
| 2025-11-02T11:56 | 8595 | 332 | -29.5 | -49.2 | 230 | 75 |
| 2025-11-02T11:57 | 8784 | 323 | 228 | 72 | ||
| 2025-11-02T11:57 | 8919 | 317 | -32.3 | -39.6 | ||
| 2025-11-02T11:57 | 8980 | 314 | 227 | 74 | ||
| 2025-11-02T11:58 | 9104 | 309 | -33.8 | -41.2 | ||
| 2025-11-02T11:58 | 9397 | 296 | -36.6 | -43.3 | ||
| 2025-11-02T11:58 | 9404 | 296 | 226 | 73 | ||
| 2025-11-02T11:59 | 9745 | 281 | -39.8 | -46.1 | ||
| 2025-11-02T11:59 | 9781 | 280 | -40.0 | -46.6 | ||
| 2025-11-02T11:59 | 9794 | 279 | 229 | 74 | ||
| 2025-11-02T12:00 | 10127 | 266 | 226 | 71 | ||
| 2025-11-02T12:01 | 10467 | 253 | 228 | 71 | ||
| 2025-11-02T12:01 | 10512 | 251 | -45.5 | |||
| 2025-11-02T12:02 | 10717 | 243 | 225 | 70 | ||
| 2025-11-02T12:02 | 10840 | 239 | 227 | 71 | ||
| 2025-11-02T12:03 | 11152 | 228 | 229 | 73 | ||
| 2025-11-02T12:04 | 11499 | 216 | 232 | 74 | ||
| 2025-11-02T12:04 | 11525 | 215 | -52.1 | |||
| 2025-11-02T12:04 | 11646 | 211 | 234 | 79 | ||
| 2025-11-02T12:05 | 11864 | 204 | 238 | 73 | ||
| 2025-11-02T12:05 | 11978 | 201 | -53.0 | |||
| 2025-11-02T12:05 | 12105 | 197 | 240 | 72 | ||
| 2025-11-02T12:06 | 12353 | 189 | -53.5 | |||
| 2025-11-02T12:06 | 12429 | 187 | 244 | 67 | ||
| 2025-11-02T12:07 | 12602 | 182 | 243 | 64 | ||
| 2025-11-02T12:08 | 12952 | 172 | 242 | 64 | ||
| 2025-11-02T12:08 | 12980 | 172 | -55.6 | |||
| 2025-11-02T12:09 | 13174 | 167 | 246 | 63 | ||
| 2025-11-02T12:09 | 13184 | 166 | -55.7 | |||
| 2025-11-02T12:10 | 13471 | 159 | 243 | 57 | ||
| 2025-11-02T12:10 | 13619 | 155 | -56.3 | |||
| 2025-11-02T12:10 | 13765 | 152 | 239 | 57 | ||
| 2025-11-02T12:11 | 14074 | 145 | 236 | 57 | ||
| 2025-11-02T12:12 | 14419 | 137 | 240 | 58 | ||
| 2025-11-02T12:13 | 14794 | 129 | 248 | 54 | ||
| 2025-11-02T12:14 | 14969 | 125 | -62.0 | |||
| 2025-11-02T12:14 | 15089 | 123 | 245 | 52 | ||
| 2025-11-02T12:15 | 15366 | 117 | -63.3 | |||
| 2025-11-02T12:15 | 15394 | 117 | 247 | 51 | ||
| 2025-11-02T12:16 | 15594 | 113 | -63.9 | |||
| 2025-11-02T12:16 | 15672 | 112 | 248 | 47 | ||
| 2025-11-02T12:17 | 15950 | 107 | 248 | 45 | ||
| 2025-11-02T12:17 | 15993 | 106 | -63.8 | |||
| 2025-11-02T12:18 | 16260 | 101 | 246 | 40 | ||
| 2025-11-02T12:18 | 16315 | 101 | -62.7 | |||
| 2025-11-02T12:19 | 16518 | 97 | 239 | 38 | ||
| 2025-11-02T12:20 | 16828 | 92 | 238 | 35 | ||
| 2025-11-02T12:20 | 16840 | 92 | -64.2 | |||
| 2025-11-02T12:21 | 17160 | 88 | 232 | 30 | ||
| 2025-11-02T12:21 | 17196 | 87 | -64.9 | |||
| 2025-11-02T12:21 | 17333 | 85 | 232 | 31 | ||
| 2025-11-02T12:21 | 17338 | 85 | -63.9 | |||
| 2025-11-02T12:22 | 17589 | 82 | -64.9 | |||
| 2025-11-02T12:22 | 17647 | 81 | 241 | 35 | ||
| 2025-11-02T12:23 | 17708 | 80 | -61.2 | |||
| 2025-11-02T12:24 | 17968 | 77 | -61.5 | 250 | 31 | |
| 2025-11-02T12:24 | 18100 | 75 | -60.1 | |||
| 2025-11-02T12:24 | 18175 | 74 | 235 | 25 | ||
| 2025-11-02T12:25 | 18520 | 70 | 228 | 26 | ||
| 2025-11-02T12:26 | 18827 | 67 | 233 | 26 | ||
| 2025-11-02T12:26 | 18979 | 65 | -60.5 | |||
| 2025-11-02T12:27 | 19184 | 63 | 234 | 26 | ||
| 2025-11-02T12:28 | 19403 | 61 | -61.8 | |||
| 2025-11-02T12:28 | 19495 | 60 | 246 | 26 | ||
| 2025-11-02T12:28 | 19556 | 59 | -59.7 | |||
| 2025-11-02T12:28 | 19634 | 59 | 244 | 22 | ||
| 2025-11-02T12:28 | 19656 | 59 | -58.9 | |||
| 2025-11-02T12:29 | 19893 | 56 | -60.1 | |||
| 2025-11-02T12:29 | 19948 | 56 | 247 | 26 | ||
| 2025-11-02T12:30 | 20027 | 55 | -58.5 | |||
| 2025-11-02T12:30 | 20211 | 54 | -57.4 | |||
| 2025-11-02T12:30 | 20260 | 53 | 265 | 23 | ||
| 2025-11-02T12:31 | 20418 | 52 | 262 | 20 | ||
| 2025-11-02T12:31 | 20527 | 51 | -57.6 | |||
| 2025-11-02T12:31 | 20650 | 50 | -56.7 | |||
| 2025-11-02T12:32 | 20665 | 50 | 249 | 17 | ||
| 2025-11-02T12:32 | 20900 | 48 | 245 | 11 | ||
| 2025-11-02T12:33 | 21194 | 46 | 182 | 11 | ||
| 2025-11-02T12:33 | 21222 | 46 | -58.3 | |||
| 2025-11-02T12:34 | 21517 | 44 | 200 | 18 | ||
| 2025-11-02T12:35 | 21784 | 42 | -56.3 | |||
| 2025-11-02T12:35 | 21861 | 41 | 219 | 21 | ||
| 2025-11-02T12:36 | 22066 | 40 | 235 | 17 | ||
| 2025-11-02T12:36 | 22209 | 39 | -55.9 | |||
| 2025-11-02T12:36 | 22323 | 38 | 207 | 14 | ||
| 2025-11-02T12:37 | 22426 | 38 | -53.6 | |||
| 2025-11-02T12:37 | 22636 | 37 | 216 | 17 | ||
| 2025-11-02T12:37 | 22686 | 36 | -53.5 | |||
| 2025-11-02T12:38 | 22995 | 35 | 241 | 12 | ||
| 2025-11-02T12:38 | 23151 | 34 | 256 | 11 | ||
| 2025-11-02T12:39 | 23325 | 33 | -52.8 | |||
| 2025-11-02T12:39 | 23443 | 32 | 277 | 5 | ||
| 2025-11-02T12:40 | 23814 | 30 | 255 | 9 | ||
| 2025-11-02T12:41 | 24030 | 29 | -53.9 | |||
| 2025-11-02T12:41 | 24139 | 29 | 189 | 6 | ||
| 2025-11-02T12:42 | 24318 | 28 | 146 | 6 | ||
| 2025-11-02T12:42 | 24485 | 27 | -53.7 | |||
| 2025-11-02T12:43 | 24699 | 27 | 210 | 8 | ||
| 2025-11-02T12:43 | 24772 | 26 | -53.5 | |||
| 2025-11-02T12:43 | 24821 | 26 | 204 | 8 | ||
| 2025-11-02T12:44 | 25073 | 25 | 180 | 3 | ||
| 2025-11-02T12:44 | 25175 | 25 | 137 | 6 | ||
| 2025-11-02T12:44 | 25306 | 24 | 149 | 7 | ||
| 2025-11-02T12:45 | 25414 | 24 | 170 | 7 | ||
| 2025-11-02T12:45 | 25606 | 23 | -52.9 | |||
| 2025-11-02T12:46 | 25722 | 23 | 159 | 10 | ||
| 2025-11-02T12:47 | 26075 | 21 | -53.2 | |||
| 2025-11-02T12:47 | 26104 | 21 | 174 | 1 | ||
| 2025-11-02T12:47 | 26226 | 21 | 332 | 3 | ||
| 2025-11-02T12:47 | 26381 | 20 | 328 | 6 | ||
| 2025-11-02T12:48 | 26510 | 20 | 344 | 2 | ||
| 2025-11-02T12:48 | 26732 | 19 | 264 | 2 | ||
| 2025-11-02T12:49 | 26866 | 19 | 232 | 5 | ||
| 2025-11-02T12:49 | 26969 | 19 | -55.5 | |||
| 2025-11-02T12:49 | 27037 | 18 | 254 | 7 | ||
| 2025-11-02T12:49 | 27215 | 18 | 287 | 5 | ||
| 2025-11-02T12:50 | 27508 | 17 | 318 | 9 | ||
| 2025-11-02T12:51 | 27696 | 17 | 283 | 7 | ||
| 2025-11-02T12:51 | 27929 | 16 | 319 | 7 | ||
| 2025-11-02T12:52 | 28009 | 16 | -55.7 | |||
| 2025-11-02T12:52 | 28091 | 16 | 297 | 5 | ||
| 2025-11-02T12:52 | 28172 | 15 | -55.5 | |||
| 2025-11-02T12:52 | 28345 | 15 | -53.9 | |||
| 2025-11-02T12:53 | 28514 | 15 | 51 | 10 | ||
| 2025-11-02T12:53 | 28783 | 14 | 82 | 15 | ||
| 2025-11-02T12:54 | 28923 | 14 | -54.4 | |||
| 2025-11-02T12:54 | 29113 | 13 | 82 | 8 | ||
| 2025-11-02T12:55 | 29259 | 13 | 91 | 5 | ||
| 2025-11-02T12:55 | 29355 | 13 | -55.9 | 109 | 5 | |
| 2025-11-02T12:55 | 29507 | 13 | 88 | 8 | ||
| 2025-11-02T12:56 | 29716 | 12 | 102 | 4 | ||
| 2025-11-02T12:56 | 29768 | 12 | 78 | 1 | ||
| 2025-11-02T12:56 | 29879 | 12 | 328 | 5 | ||
| 2025-11-02T12:57 | 30102 | 11 | 351 | 13 | ||
| 2025-11-02T12:57 | 30332 | 11 | 46 | 11 | ||
| 2025-11-02T12:57 | 30392 | 11 | -50.6 | |||
| 2025-11-02T12:58 | 30577 | 11 | 47 | 11 | ||
| 2025-11-02T12:58 | 30698 | 10 | -50.6 | 60 | 9 | |
| 2025-11-03T00:37 | 26 | 1012 | 15.7 | 12.1 | 280 | 2 |
| 2025-11-03T00:37 | 32 | 1011 | 15.6 | 12.2 | 356 | 1 |
| 2025-11-03T00:37 | 91 | 1004 | 14.0 | 11.3 | ||
| 2025-11-03T00:37 | 130 | 999 | 309 | 5 | ||
| 2025-11-03T00:38 | 224 | 988 | 13.0 | 9.6 | ||
| 2025-11-03T00:38 | 268 | 983 | 13.7 | 6.6 | ||
| 2025-11-03T00:38 | 434 | 964 | 337 | 7 | ||
| 2025-11-03T00:38 | 476 | 959 | 12.4 | 4.9 | ||
| 2025-11-03T00:39 | 747 | 929 | 328 | 9 | ||
| 2025-11-03T00:40 | 1009 | 900 | 7.8 | 1.6 | ||
| 2025-11-03T00:40 | 1077 | 892 | 307 | 11 | ||
| 2025-11-03T00:40 | 1152 | 884 | 7.3 | 0.9 | ||
| 2025-11-03T00:41 | 1314 | 867 | 300 | 8 | ||
| 2025-11-03T00:42 | 1561 | 841 | 298 | 6 | ||
| 2025-11-03T00:42 | 1780 | 819 | 299 | 5 | ||
| 2025-11-03T00:43 | 1916 | 805 | 0.1 | 0.1 | ||
| 2025-11-03T00:43 | 1947 | 802 | 274 | 3 | ||
| 2025-11-03T00:43 | 2002 | 796 | -0.3 | -0.6 | ||
| 2025-11-03T00:43 | 2045 | 792 | 261 | 6 | ||
| 2025-11-03T00:43 | 2069 | 790 | -0.5 | -2.6 | ||
| 2025-11-03T00:44 | 2338 | 763 | 270 | 7 | ||
| 2025-11-03T00:44 | 2344 | 763 | -2.5 | -5.5 | ||
| 2025-11-03T00:45 | 2619 | 737 | -4.2 | -7.1 | ||
| 2025-11-03T00:45 | 2691 | 730 | 274 | 9 | ||
| 2025-11-03T00:46 | 3058 | 696 | 276 | 10 | ||
| 2025-11-03T00:46 | 3196 | 684 | -9.6 | -9.6 | ||
| 2025-11-03T00:47 | 3332 | 672 | -9.9 | -11.0 | ||
| 2025-11-03T00:47 | 3419 | 665 | 258 | 9 | ||
| 2025-11-03T00:47 | 3482 | 659 | -10.6 | -12.3 | ||
| 2025-11-03T00:47 | 3656 | 645 | 238 | 13 | ||
| 2025-11-03T00:48 | 3673 | 643 | -11.0 | -17.0 | ||
| 2025-11-03T00:48 | 3783 | 634 | -11.9 | -18.7 | ||
| 2025-11-03T00:48 | 3845 | 629 | -12.0 | -22.1 | ||
| 2025-11-03T00:48 | 3994 | 617 | 246 | 24 | ||
| 2025-11-03T00:49 | 4087 | 609 | -13.0 | -29.8 | ||
| 2025-11-03T00:49 | 4326 | 590 | 241 | 27 | ||
| 2025-11-03T00:50 | 4394 | 585 | -15.2 | -34.8 | ||
| 2025-11-03T00:50 | 4598 | 570 | 232 | 34 | ||
| 2025-11-03T00:50 | 4609 | 569 | -16.1 | -45.5 | ||
| 2025-11-03T00:50 | 4665 | 565 | -16.4 | -45.8 | ||
| 2025-11-03T00:51 | 4737 | 559 | 232 | 35 | ||
| 2025-11-03T00:51 | 4866 | 550 | 231 | 41 | ||
| 2025-11-03T00:52 | 5050 | 536 | -17.3 | -46.4 | ||
| 2025-11-03T00:52 | 5079 | 534 | 230 | 43 | ||
| 2025-11-03T00:52 | 5179 | 527 | -18.1 | -47.0 | ||
| 2025-11-03T00:53 | 5379 | 513 | 231 | 46 | ||
| 2025-11-03T00:53 | 5390 | 512 | -18.9 | -49.3 | ||
| 2025-11-03T00:53 | 5575 | 500 | 236 | 47 | ||
| 2025-11-03T00:53 | 5689 | 492 | -20.7 | -49.0 | ||
| 2025-11-03T00:54 | 5848 | 482 | 236 | 52 | ||
| 2025-11-03T00:54 | 5985 | 473 | -23.2 | -49.6 | ||
| 2025-11-03T00:55 | 6184 | 460 | 233 | 52 | ||
| 2025-11-03T00:56 | 6412 | 446 | -26.3 | -50.9 | ||
| 2025-11-03T00:56 | 6509 | 440 | 234 | 51 | ||
| 2025-11-03T00:56 | 6548 | 438 | -26.8 | -52.4 | ||
| 2025-11-03T00:56 | 6632 | 433 | -26.8 | -55.2 | ||
| 2025-11-03T00:56 | 6685 | 429 | 236 | 53 | ||
| 2025-11-03T00:57 | 7008 | 410 | 235 | 53 | ||
| 2025-11-03T00:58 | 7036 | 409 | -29.5 | -57.2 | ||
| 2025-11-03T00:58 | 7137 | 403 | -29.7 | -57.4 | ||
| 2025-11-03T00:58 | 7248 | 397 | -30.6 | -58.1 | ||
| 2025-11-03T00:58 | 7341 | 392 | 232 | 53 | ||
| 2025-11-03T00:59 | 7527 | 382 | -30.7 | -62.1 | ||
| 2025-11-03T00:59 | 7675 | 374 | 229 | 53 | ||
| 2025-11-03T00:59 | 7686 | 373 | -31.3 | -62.6 | ||
| 2025-11-03T01:00 | 7786 | 368 | 231 | 54 | ||
| 2025-11-03T01:00 | 7868 | 364 | -32.7 | -63.6 | ||
| 2025-11-03T01:00 | 7961 | 359 | 232 | 56 | ||
| 2025-11-03T01:01 | 8130 | 350 | -33.8 | -64.4 | ||
| 2025-11-03T01:01 | 8311 | 341 | 230 | 61 | ||
| 2025-11-03T01:02 | 8613 | 327 | -35.5 | -65.6 | ||
| 2025-11-03T01:02 | 8632 | 326 | 231 | 60 | ||
| 2025-11-03T01:03 | 9035 | 308 | 231 | 58 | ||
| 2025-11-03T01:03 | 9084 | 305 | -38.3 | -67.7 | ||
| 2025-11-03T01:03 | 9162 | 302 | -38.4 | -67.8 | ||
| 2025-11-03T01:04 | 9384 | 292 | -40.0 | -66.9 | ||
| 2025-11-03T01:04 | 9453 | 289 | 233 | 59 | ||
| 2025-11-03T01:05 | 9673 | 280 | -40.3 | |||
| 2025-11-03T01:05 | 9865 | 272 | 236 | 57 | ||
| 2025-11-03T01:06 | 10277 | 256 | 233 | 56 | ||
| 2025-11-03T01:07 | 10448 | 250 | -43.9 | |||
| 2025-11-03T01:07 | 10705 | 240 | 232 | 56 | ||
| 2025-11-03T01:08 | 10916 | 233 | -46.7 | |||
| 2025-11-03T01:08 | 11136 | 225 | 234 | 59 | ||
| 2025-11-03T01:08 | 11247 | 221 | -48.0 | |||
| 2025-11-03T01:09 | 11392 | 217 | 235 | 58 | ||
| 2025-11-03T01:09 | 11525 | 212 | -46.3 | |||
| 2025-11-03T01:09 | 11649 | 208 | 232 | 58 | ||
| 2025-11-03T01:10 | 11930 | 200 | -49.0 | |||
| 2025-11-03T01:10 | 12027 | 197 | 240 | 59 | ||
| 2025-11-03T01:11 | 12210 | 191 | -48.8 | |||
| 2025-11-03T01:11 | 12397 | 186 | 245 | 55 | ||
| 2025-11-03T01:12 | 12761 | 176 | 246 | 56 | ||
| 2025-11-03T01:12 | 12837 | 174 | -50.8 | |||
| 2025-11-03T01:13 | 13112 | 167 | -51.9 | |||
| 2025-11-03T01:13 | 13172 | 165 | 245 | 55 | ||
| 2025-11-03T01:14 | 13391 | 160 | -53.2 | |||
| 2025-11-03T01:14 | 13552 | 156 | 243 | 49 | ||
| 2025-11-03T01:15 | 13772 | 150 | 246 | 50 | ||
| 2025-11-03T01:15 | 13827 | 149 | -54.8 | |||
| 2025-11-03T01:15 | 14050 | 144 | 250 | 50 | ||
| 2025-11-03T01:16 | 14365 | 137 | -56.3 | |||
| 2025-11-03T01:16 | 14413 | 136 | 251 | 49 | ||
| 2025-11-03T01:17 | 14717 | 130 | 252 | 47 | ||
| 2025-11-03T01:18 | 14762 | 129 | -57.5 | |||
| 2025-11-03T01:18 | 14995 | 124 | -58.4 | |||
| 2025-11-03T01:18 | 15021 | 124 | 252 | 47 | ||
| 2025-11-03T01:19 | 15337 | 117 | 253 | 42 | ||
| 2025-11-03T01:20 | 15542 | 114 | -61.0 | |||
| 2025-11-03T01:20 | 15670 | 111 | 246 | 38 | ||
| 2025-11-03T01:21 | 15987 | 106 | -62.9 | |||
| 2025-11-03T01:21 | 16004 | 105 | 236 | 40 | ||
| 2025-11-03T01:22 | 16282 | 101 | 249 | 37 | ||
| 2025-11-03T01:22 | 16289 | 101 | -62.9 | |||
| 2025-11-03T01:23 | 16635 | 95 | 256 | 29 | ||
| 2025-11-03T01:24 | 16817 | 92 | -64.7 | |||
| 2025-11-03T01:24 | 16857 | 92 | 249 | 27 | ||
| 2025-11-03T01:25 | 17205 | 87 | 238 | 37 | ||
| 2025-11-03T01:25 | 17282 | 86 | -65.9 | |||
| 2025-11-03T01:25 | 17360 | 84 | 244 | 36 | ||
| 2025-11-03T01:26 | 17512 | 82 | -63.1 | |||
| 2025-11-03T01:26 | 17522 | 82 | 248 | 29 | ||
| 2025-11-03T01:26 | 17573 | 82 | -61.5 | |||
| 2025-11-03T01:26 | 17620 | 81 | -59.7 | |||
| 2025-11-03T01:27 | 17691 | 80 | -56.4 | |||
| 2025-11-03T01:27 | 17697 | 80 | 254 | 23 | ||
| 2025-11-03T01:27 | 17809 | 79 | -56.1 | |||
| 2025-11-03T01:27 | 17933 | 77 | 237 | 14 | ||
| 2025-11-03T01:28 | 18347 | 72 | 222 | 20 | ||
| 2025-11-03T01:29 | 18654 | 69 | -61.5 | |||
| 2025-11-03T01:29 | 18747 | 68 | 237 | 18 | ||
| 2025-11-03T01:30 | 19034 | 65 | -64.0 | |||
| 2025-11-03T01:30 | 19072 | 64 | 232 | 21 | ||
| 2025-11-03T01:31 | 19228 | 63 | -63.7 | |||
| 2025-11-03T01:31 | 19337 | 61 | 229 | 23 | ||
| 2025-11-03T01:31 | 19439 | 60 | 209 | 19 | ||
| 2025-11-03T01:32 | 19554 | 59 | 216 | 19 | ||
| 2025-11-03T01:32 | 19639 | 59 | -57.5 | |||
| 2025-11-03T01:32 | 19771 | 57 | 228 | 15 | ||
| 2025-11-03T01:33 | 20008 | 55 | -57.4 | |||
| 2025-11-03T01:33 | 20089 | 55 | 236 | 10 | ||
| 2025-11-03T01:34 | 20333 | 52 | -59.1 | |||
| 2025-11-03T01:34 | 20357 | 52 | 232 | 12 | ||
| 2025-11-03T01:35 | 20690 | 50 | -59.6 | |||
| 2025-11-03T01:35 | 20716 | 49 | 232 | 17 | ||
| 2025-11-03T01:36 | 21110 | 46 | 252 | 16 | ||
| 2025-11-03T01:37 | 21414 | 44 | -57.8 | |||
| 2025-11-03T01:37 | 21442 | 44 | 264 | 16 | ||
| 2025-11-03T01:38 | 21663 | 42 | 260 | 9 | ||
| 2025-11-03T01:38 | 21874 | 41 | -59.5 | |||
| 2025-11-03T01:39 | 22013 | 40 | 233 | 12 | ||
| 2025-11-03T01:39 | 22105 | 40 | -58.9 | |||
| 2025-11-03T01:39 | 22235 | 39 | 230 | 10 | ||
| 2025-11-03T01:39 | 22252 | 39 | -56.9 | |||
| 2025-11-03T01:40 | 22587 | 37 | 231 | 9 | ||
| 2025-11-03T01:41 | 22795 | 35 | -59.6 | |||
| 2025-11-03T01:41 | 22867 | 35 | 211 | 12 | ||
| 2025-11-03T01:41 | 22954 | 35 | -56.7 | |||
| 2025-11-03T01:42 | 23066 | 34 | 191 | 9 | ||
| 2025-11-03T01:42 | 23332 | 33 | 202 | 16 | ||
| 2025-11-03T01:43 | 23391 | 32 | -56.5 | |||
| 2025-11-03T01:43 | 23513 | 32 | -54.1 | |||
| 2025-11-03T01:43 | 23675 | 31 | 215 | 13 | ||
| 2025-11-03T01:44 | 23932 | 30 | -53.5 | |||
| 2025-11-03T01:44 | 23997 | 29 | 222 | 7 | ||
| 2025-11-03T01:45 | 24403 | 28 | 226 | 10 | ||
| 2025-11-03T01:46 | 24543 | 27 | -54.4 | |||
| 2025-11-03T01:46 | 24663 | 26 | 198 | 8 | ||
| 2025-11-03T01:46 | 24836 | 26 | 174 | 6 | ||
| 2025-11-03T01:47 | 25014 | 25 | 232 | 4 | ||
| 2025-11-03T01:47 | 25119 | 25 | 240 | 4 | ||
| 2025-11-03T01:47 | 25146 | 25 | -53.8 | |||
| 2025-11-03T01:48 | 25277 | 24 | 160 | 6 | ||
| 2025-11-03T01:48 | 25416 | 24 | 167 | 4 | ||
| 2025-11-03T01:48 | 25638 | 23 | 229 | 1 | ||
| 2025-11-03T01:49 | 25753 | 22 | 128 | 3 | ||
| 2025-11-03T01:49 | 25837 | 22 | 139 | 3 | ||
| 2025-11-03T01:49 | 25866 | 22 | -54.7 | |||
| 2025-11-03T01:49 | 25897 | 22 | 104 | 5 | ||
| 2025-11-03T01:49 | 26015 | 21 | 124 | 10 | ||
| 2025-11-03T01:50 | 26381 | 20 | -55.4 | 169 | 8 | |
| 2025-11-03T01:51 | 26512 | 20 | 181 | 5 | ||
| 2025-11-03T01:51 | 26610 | 20 | 148 | 6 | ||
| 2025-11-03T01:51 | 26642 | 19 | -53.3 | |||
| 2025-11-03T01:52 | 26911 | 19 | 149 | 9 | ||
| 2025-11-03T01:52 | 27120 | 18 | 169 | 8 | ||
| 2025-11-03T01:53 | 27486 | 17 | 165 | 6 | ||
| 2025-11-03T01:54 | 27639 | 17 | 134 | 4 | ||
| 2025-11-03T01:54 | 27834 | 16 | 149 | 4 | ||
| 2025-11-03T01:54 | 27915 | 16 | 136 | 3 | ||
| 2025-11-03T01:55 | 27997 | 16 | 271 | 2 | ||
| 2025-11-03T01:55 | 28118 | 15 | 301 | 4 | ||
| 2025-11-03T01:55 | 28203 | 15 | -56.4 | |||
| 2025-11-03T01:55 | 28242 | 15 | 201 | 2 | ||
| 2025-11-03T01:56 | 28412 | 15 | 196 | 3 | ||
| 2025-11-03T01:56 | 28502 | 15 | 252 | 2 | ||
| 2025-11-03T01:56 | 28586 | 14 | 304 | 3 | ||
| 2025-11-03T01:56 | 28678 | 14 | -56.6 | |||
| 2025-11-03T01:56 | 28722 | 14 | 300 | 9 | ||
| 2025-11-03T01:57 | 28907 | 14 | -54.3 | 353 | 12 | |
| 2025-11-03T01:57 | 29145 | 13 | 23 | 11 | ||
| 2025-11-03T01:58 | 29294 | 13 | 58 | 13 | ||
| 2025-11-03T01:59 | 29655 | 12 | -54.9 | |||
| 2025-11-03T01:59 | 29708 | 12 | 47 | 13 | ||
| 2025-11-03T02:00 | 29978 | 12 | 69 | 12 | ||
| 2025-11-03T02:00 | 30034 | 11 | -56.7 | |||
| 2025-11-03T02:00 | 30147 | 11 | 104 | 4 | ||
| 2025-11-03T02:00 | 30205 | 11 | 73 | 4 | ||
| 2025-11-03T02:01 | 30379 | 11 | 68 | 9 | ||
| 2025-11-03T02:01 | 30500 | 11 | -49.7 | |||
| 2025-11-03T02:01 | 30627 | 10 | 88 | 5 | ||
| 2025-11-03T02:02 | 30821 | 10 | -48.8 | |||
| 2025-11-03T02:02 | 30890 | 10 | 102 | 10 | ||
| 2025-11-03T02:02 | 31021 | 10 | 109 | 10 | ||
| 2025-11-03T02:02 | 31090 | 10 | -48.5 | |||
| 2025-11-03T02:02 | 31155 | 10 | 108 | 7 | ||
| 2025-11-03T02:03 | 31340 | 9 | -46.8 | 85 | 7 | |
| 2025-11-03T11:33 | 26 | 1021 | 9.0 | 3.8 | 260 | 0 |
| 2025-11-03T11:33 | 35 | 1020 | 9.5 | 3.9 | 0 | 0 |
| 2025-11-03T11:33 | 70 | 1016 | 290 | 3 | ||
| 2025-11-03T11:33 | 79 | 1015 | 11.8 | 3.3 | ||
| 2025-11-03T11:33 | 108 | 1011 | 314 | 8 | ||
| 2025-11-03T11:33 | 119 | 1010 | 12.0 | 2.5 | ||
| 2025-11-03T11:34 | 224 | 997 | 357 | 4 | ||
| 2025-11-03T11:34 | 328 | 985 | 32 | 3 | ||
| 2025-11-03T11:34 | 402 | 976 | 40 | 2 | ||
| 2025-11-03T11:35 | 584 | 955 | 6 | 6 | ||
| 2025-11-03T11:35 | 596 | 953 | 8.3 | 0.5 | ||
| 2025-11-03T11:35 | 711 | 940 | 7.5 | -0.2 | ||
| 2025-11-03T11:35 | 802 | 930 | 6 | 7 | ||
| 2025-11-03T11:36 | 957 | 912 | 6.1 | -2.5 | ||
| 2025-11-03T11:36 | 979 | 910 | 6.6 | -2.8 | ||
| 2025-11-03T11:36 | 1010 | 906 | 6.2 | -2.9 | ||
| 2025-11-03T11:36 | 1074 | 899 | 346 | 13 | ||
| 2025-11-03T11:37 | 1189 | 887 | 6.5 | -8.6 | ||
| 2025-11-03T11:37 | 1383 | 866 | 355 | 12 | ||
| 2025-11-03T11:38 | 1575 | 846 | 3.2 | -10.8 | ||
| 2025-11-03T11:38 | 1748 | 828 | 4 | 12 | ||
| 2025-11-03T11:39 | 1957 | 807 | 0.4 | -12.3 | ||
| 2025-11-03T11:39 | 2090 | 793 | 15 | 12 | ||
| 2025-11-03T11:39 | 2134 | 789 | -1.1 | -10.0 | ||
| 2025-11-03T11:40 | 2217 | 781 | 26 | 8 | ||
| 2025-11-03T11:40 | 2344 | 768 | 14 | 11 | ||
| 2025-11-03T11:40 | 2471 | 756 | -3.9 | -9.9 | ||
| 2025-11-03T11:41 | 2599 | 744 | 10 | 11 | ||
| 2025-11-03T11:41 | 2728 | 732 | -5.5 | -13.6 | ||
| 2025-11-03T11:41 | 2762 | 728 | -5.1 | -14.7 | ||
| 2025-11-03T11:42 | 2936 | 712 | 338 | 11 | ||
| 2025-11-03T11:43 | 3287 | 681 | 341 | 10 | ||
| 2025-11-03T11:43 | 3329 | 677 | -10.0 | -15.5 | ||
| 2025-11-03T11:43 | 3401 | 671 | 336 | 10 | ||
| 2025-11-03T11:43 | 3522 | 661 | -11.1 | -17.1 | ||
| 2025-11-03T11:44 | 3580 | 656 | 311 | 10 | ||
| 2025-11-03T11:44 | 3605 | 654 | -11.0 | -20.1 | ||
| 2025-11-03T11:44 | 3725 | 643 | 291 | 14 | ||
| 2025-11-03T11:44 | 3761 | 640 | -12.1 | -21.4 | ||
| 2025-11-03T11:45 | 3915 | 628 | -13.3 | -23.0 | ||
| 2025-11-03T11:45 | 3960 | 624 | -12.7 | -26.7 | ||
| 2025-11-03T11:45 | 4011 | 620 | 286 | 16 | ||
| 2025-11-03T11:46 | 4235 | 602 | 295 | 15 | ||
| 2025-11-03T11:46 | 4334 | 594 | 297 | 15 | ||
| 2025-11-03T11:46 | 4380 | 590 | -16.1 | -34.4 | ||
| 2025-11-03T11:46 | 4406 | 588 | -15.1 | -44.8 | ||
| 2025-11-03T11:46 | 4428 | 587 | -14.2 | -50.3 | ||
| 2025-11-03T11:47 | 4478 | 583 | -13.9 | -50.1 | ||
| 2025-11-03T11:47 | 4486 | 582 | 310 | 19 | ||
| 2025-11-03T11:47 | 4519 | 580 | -12.9 | -49.4 | ||
| 2025-11-03T11:47 | 4597 | 574 | 319 | 22 | ||
| 2025-11-03T11:47 | 4672 | 568 | -13.1 | -53.0 | ||
| 2025-11-03T11:48 | 4729 | 564 | 321 | 23 | ||
| 2025-11-03T11:48 | 4852 | 555 | -11.3 | -51.8 | ||
| 2025-11-03T11:48 | 4960 | 547 | -11.5 | -48.4 | ||
| 2025-11-03T11:49 | 5038 | 541 | 322 | 24 | ||
| 2025-11-03T11:49 | 5204 | 530 | 320 | 21 | ||
| 2025-11-03T11:50 | 5528 | 508 | 317 | 24 | ||
| 2025-11-03T11:51 | 5898 | 483 | 311 | 27 | ||
| 2025-11-03T11:51 | 5946 | 480 | -19.3 | -53.9 | ||
| 2025-11-03T11:52 | 6240 | 461 | 309 | 25 | ||
| 2025-11-03T11:53 | 6590 | 440 | 303 | 25 | ||
| 2025-11-03T11:54 | 6938 | 419 | 290 | 29 | ||
| 2025-11-03T11:55 | 7189 | 405 | -27.3 | -59.7 | ||
| 2025-11-03T11:55 | 7301 | 399 | 296 | 30 | ||
| 2025-11-03T11:56 | 7616 | 381 | 285 | 30 | ||
| 2025-11-03T11:56 | 7653 | 379 | -30.7 | -62.1 | ||
| 2025-11-03T11:57 | 7873 | 368 | -31.5 | -62.7 | ||
| 2025-11-03T11:57 | 7919 | 365 | 284 | 32 | ||
| 2025-11-03T11:58 | 8256 | 348 | 275 | 33 | ||
| 2025-11-03T11:58 | 8317 | 345 | -34.8 | -63.0 | ||
| 2025-11-03T11:59 | 8601 | 331 | -36.8 | -62.8 | ||
| 2025-11-03T11:59 | 8633 | 330 | 281 | 36 | ||
| 2025-11-03T12:00 | 8951 | 315 | -38.8 | -64.3 | ||
| 2025-11-03T12:00 | 9015 | 312 | 278 | 36 | ||
| 2025-11-03T12:00 | 9164 | 305 | 277 | 35 | ||
| 2025-11-03T12:00 | 9187 | 304 | -40.0 | -65.3 | ||
| 2025-11-03T12:01 | 9564 | 288 | 276 | 36 | ||
| 2025-11-03T12:02 | 9781 | 279 | -43.5 | |||
| 2025-11-03T12:02 | 9949 | 272 | 277 | 31 | ||
| 2025-11-03T12:03 | 10316 | 257 | 273 | 33 | ||
| 2025-11-03T12:04 | 10538 | 249 | -45.9 | |||
| 2025-11-03T12:04 | 10707 | 243 | 266 | 33 | ||
| 2025-11-03T12:05 | 10878 | 236 | -47.2 | |||
| 2025-11-03T12:05 | 11088 | 229 | 264 | 34 | ||
| 2025-11-03T12:06 | 11474 | 216 | 267 | 36 | ||
| 2025-11-03T12:07 | 11674 | 209 | -50.3 | |||
| 2025-11-03T12:07 | 11710 | 208 | 266 | 35 | ||
| 2025-11-03T12:08 | 12026 | 198 | -50.3 | |||
| 2025-11-03T12:08 | 12052 | 198 | 261 | 36 | ||
| 2025-11-03T12:09 | 12288 | 191 | 258 | 39 | ||
| 2025-11-03T12:09 | 12484 | 185 | -52.1 | |||
| 2025-11-03T12:09 | 12506 | 184 | 264 | 43 | ||
| 2025-11-03T12:10 | 12806 | 176 | 263 | 42 | ||
| 2025-11-03T12:11 | 13145 | 167 | 258 | 42 | ||
| 2025-11-03T12:12 | 13394 | 161 | -55.3 | |||
| 2025-11-03T12:12 | 13522 | 157 | 260 | 46 | ||
| 2025-11-03T12:13 | 13720 | 152 | -56.4 | |||
| 2025-11-03T12:13 | 13895 | 148 | 265 | 43 | ||
| 2025-11-03T12:14 | 13977 | 146 | -57.3 | |||
| 2025-11-03T12:14 | 14199 | 141 | 263 | 42 | ||
| 2025-11-03T12:15 | 14418 | 137 | -58.4 | |||
| 2025-11-03T12:15 | 14492 | 135 | 263 | 42 | ||
| 2025-11-03T12:16 | 14630 | 132 | -59.2 | |||
| 2025-11-03T12:16 | 14763 | 129 | 262 | 40 | ||
| 2025-11-03T12:17 | 15054 | 123 | -58.8 | |||
| 2025-11-03T12:17 | 15077 | 123 | 259 | 40 | ||
| 2025-11-03T12:18 | 15315 | 118 | -60.4 | |||
| 2025-11-03T12:18 | 15346 | 118 | 254 | 41 | ||
| 2025-11-03T12:19 | 15634 | 112 | 262 | 43 | ||
| 2025-11-03T12:19 | 15688 | 111 | -61.3 | |||
| 2025-11-03T12:20 | 15863 | 108 | 274 | 37 | ||
| 2025-11-03T12:20 | 16085 | 105 | -59.9 | |||
| 2025-11-03T12:20 | 16128 | 104 | 274 | 27 | ||
| 2025-11-03T12:21 | 16395 | 99 | 258 | 24 | ||
| 2025-11-03T12:22 | 16461 | 98 | -61.4 | |||
| 2025-11-03T12:22 | 16660 | 95 | 243 | 31 | ||
| 2025-11-03T12:22 | 16712 | 95 | -62.0 | |||
| 2025-11-03T12:23 | 17006 | 90 | 246 | 34 | ||
| 2025-11-03T12:24 | 17246 | 87 | 244 | 39 | ||
| 2025-11-03T12:24 | 17423 | 84 | -67.2 | |||
| 2025-11-03T12:25 | 17578 | 82 | 255 | 39 | ||
| 2025-11-03T12:25 | 17666 | 81 | -67.4 | |||
| 2025-11-03T12:26 | 17893 | 78 | -68.1 | |||
| 2025-11-03T12:26 | 17909 | 78 | 257 | 33 | ||
| 2025-11-03T12:27 | 18122 | 75 | -67.4 | |||
| 2025-11-03T12:27 | 18236 | 74 | 257 | 28 | ||
| 2025-11-03T12:27 | 18301 | 73 | -64.6 | |||
| 2025-11-03T12:27 | 18393 | 72 | 249 | 24 | ||
| 2025-11-03T12:27 | 18404 | 72 | -64.1 | |||
| 2025-11-03T12:28 | 18489 | 71 | -64.1 | |||
| 2025-11-03T12:28 | 18550 | 70 | -60.7 | |||
| 2025-11-03T12:28 | 18711 | 68 | 243 | 24 | ||
| 2025-11-03T12:29 | 18861 | 66 | -62.3 | |||
| 2025-11-03T12:29 | 18926 | 66 | 251 | 24 | ||
| 2025-11-03T12:30 | 19041 | 65 | -61.3 | |||
| 2025-11-03T12:30 | 19118 | 64 | 257 | 21 | ||
| 2025-11-03T12:30 | 19304 | 62 | -61.0 | |||
| 2025-11-03T12:30 | 19315 | 62 | 265 | 20 | ||
| 2025-11-03T12:31 | 19417 | 61 | -59.7 | |||
| 2025-11-03T12:31 | 19479 | 60 | 275 | 16 | ||
| 2025-11-03T12:32 | 19679 | 58 | -60.0 | |||
| 2025-11-03T12:32 | 19713 | 58 | 275 | 18 | ||
| 2025-11-03T12:32 | 19899 | 56 | 280 | 14 | ||
| 2025-11-03T12:32 | 19921 | 56 | -60.3 | |||
| 2025-11-03T12:33 | 20137 | 54 | 238 | 11 | ||
| 2025-11-03T12:33 | 20241 | 53 | -59.2 | |||
| 2025-11-03T12:34 | 20491 | 51 | -60.5 | 233 | 13 | |
| 2025-11-03T12:34 | 20615 | 50 | -58.5 | |||
| 2025-11-03T12:35 | 20704 | 49 | 226 | 14 | ||
| 2025-11-03T12:35 | 20977 | 47 | -58.0 | |||
| 2025-11-03T12:35 | 20991 | 47 | 231 | 19 | ||
| 2025-11-03T12:36 | 21182 | 46 | 227 | 11 | ||
| 2025-11-03T12:36 | 21196 | 46 | -55.8 | |||
| 2025-11-03T12:36 | 21349 | 45 | 196 | 9 | ||
| 2025-11-03T12:37 | 21607 | 43 | -57.5 | |||
| 2025-11-03T12:37 | 21666 | 42 | 191 | 14 | ||
| 2025-11-03T12:38 | 22041 | 40 | -57.7 | 208 | 18 | |
| 2025-11-03T12:39 | 22279 | 39 | 234 | 18 | ||
| 2025-11-03T12:40 | 22498 | 37 | 269 | 10 | ||
| 2025-11-03T12:40 | 22532 | 37 | -53.9 | |||
| 2025-11-03T12:41 | 22778 | 36 | 262 | 11 | ||
| 2025-11-03T12:41 | 22903 | 35 | -54.3 | |||
| 2025-11-03T12:41 | 23016 | 34 | 264 | 11 | ||
| 2025-11-03T12:42 | 23282 | 33 | 292 | 4 | ||
| 2025-11-03T12:42 | 23437 | 32 | 0 | 0 | ||
| 2025-11-03T12:43 | 23519 | 32 | 127 | 3 | ||
| 2025-11-03T12:43 | 23724 | 31 | -55.5 | |||
| 2025-11-03T12:44 | 23892 | 30 | 171 | 7 | ||
| 2025-11-03T12:44 | 23957 | 30 | -56.2 | |||
| 2025-11-03T12:44 | 24130 | 29 | 217 | 7 | ||
| 2025-11-03T12:45 | 24218 | 28 | -53.6 | |||
| 2025-11-03T12:45 | 24288 | 28 | 182 | 5 | ||
| 2025-11-03T12:46 | 24665 | 27 | 204 | 6 | ||
| 2025-11-03T12:46 | 24783 | 26 | 230 | 5 | ||
| 2025-11-03T12:46 | 24908 | 26 | 211 | 4 | ||
| 2025-11-03T12:47 | 25087 | 25 | 237 | 6 | ||
| 2025-11-03T12:47 | 25244 | 24 | -54.2 | 263 | 3 | |
| 2025-11-03T12:48 | 25430 | 24 | 226 | 6 | ||
| 2025-11-03T12:48 | 25540 | 23 | 244 | 4 | ||
| 2025-11-03T12:48 | 25626 | 23 | -53.3 | 189 | 5 | |
| 2025-11-03T12:49 | 25857 | 22 | 229 | 3 | ||
| 2025-11-03T12:49 | 25945 | 22 | 280 | 3 | ||
| 2025-11-03T12:50 | 26188 | 21 | 309 | 5 | ||
| 2025-11-03T12:50 | 26342 | 20 | 294 | 3 | ||
| 2025-11-03T12:51 | 26435 | 20 | 149 | 1 | ||
| 2025-11-03T12:51 | 26598 | 20 | 171 | 4 | ||
| 2025-11-03T12:51 | 26696 | 19 | 143 | 3 | ||
| 2025-11-03T12:52 | 26832 | 19 | -54.9 | |||
| 2025-11-03T12:52 | 26866 | 19 | 162 | 7 | ||
| 2025-11-03T12:52 | 27070 | 18 | 165 | 9 | ||
| 2025-11-03T12:53 | 27319 | 18 | 169 | 3 | ||
| 2025-11-03T12:53 | 27505 | 17 | 174 | 3 | ||
| 2025-11-03T12:53 | 27541 | 17 | -55.7 | |||
| 2025-11-03T12:54 | 27616 | 17 | 160 | 3 | ||
| 2025-11-03T12:54 | 27696 | 17 | 197 | 3 | ||
| 2025-11-03T12:54 | 27751 | 16 | -54.9 | 201 | 3 | |
| 2025-11-03T23:33 | 26 | 1027 | 11.8 | 5.9 | 330 | 1 |
| 2025-11-03T23:33 | 35 | 1026 | 11.6 | 5.7 | 52 | 1 |
| 2025-11-03T23:33 | 95 | 1018 | 301 | 3 | ||
| 2025-11-03T23:33 | 146 | 1012 | 300 | 2 | ||
| 2025-11-03T23:33 | 162 | 1010 | 10.1 | 4.0 | ||
| 2025-11-03T23:34 | 230 | 1002 | 34 | 3 | ||
| 2025-11-03T23:34 | 246 | 1000 | 9.9 | 1.8 | ||
| 2025-11-03T23:34 | 374 | 985 | 37 | 7 | ||
| 2025-11-03T23:35 | 615 | 957 | 35 | 8 | ||
| 2025-11-03T23:35 | 744 | 942 | 6.6 | -2.0 | ||
| 2025-11-03T23:35 | 818 | 933 | 35 | 8 | ||
| 2025-11-03T23:36 | 984 | 914 | 34 | 5 | ||
| 2025-11-03T23:37 | 1242 | 886 | 2.8 | -3.8 | ||
| 2025-11-03T23:37 | 1275 | 882 | 16 | 6 | ||
| 2025-11-03T23:37 | 1379 | 871 | 2.4 | -4.6 | ||
| 2025-11-03T23:38 | 1504 | 858 | 25 | 4 | ||
| 2025-11-03T23:38 | 1510 | 857 | 1.5 | -6.8 | ||
| 2025-11-03T23:38 | 1650 | 842 | 1.8 | -17.2 | ||
| 2025-11-03T23:38 | 1683 | 839 | 44 | 3 | ||
| 2025-11-03T23:39 | 1918 | 814 | 0.1 | -17.6 | ||
| 2025-11-03T23:39 | 2013 | 805 | 0.3 | -23.4 | ||
| 2025-11-03T23:39 | 2018 | 804 | 97 | 2 | ||
| 2025-11-03T23:40 | 2207 | 785 | 351 | 2 | ||
| 2025-11-03T23:40 | 2229 | 783 | 0.8 | -29.8 | ||
| 2025-11-03T23:40 | 2343 | 772 | 308 | 3 | ||
| 2025-11-03T23:40 | 2389 | 768 | 0.7 | -29.9 | ||
| 2025-11-03T23:41 | 2472 | 760 | 23 | 3 | ||
| 2025-11-03T23:41 | 2514 | 756 | 0.4 | -31.5 | ||
| 2025-11-03T23:41 | 2562 | 751 | 8 | 3 | ||
| 2025-11-03T23:41 | 2646 | 744 | 0.4 | -35.0 | ||
| 2025-11-03T23:41 | 2694 | 739 | 1.0 | -36.8 | 337 | 6 |
| 2025-11-03T23:41 | 2723 | 736 | 2.2 | -38.8 | ||
| 2025-11-03T23:41 | 2813 | 728 | 357 | 4 | ||
| 2025-11-03T23:42 | 2907 | 720 | 64 | 4 | ||
| 2025-11-03T23:42 | 3002 | 712 | 1.0 | -39.6 | ||
| 2025-11-03T23:42 | 3013 | 710 | 37 | 3 | ||
| 2025-11-03T23:42 | 3132 | 700 | 17 | 2 | ||
| 2025-11-03T23:43 | 3248 | 690 | 48 | 2 | ||
| 2025-11-03T23:43 | 3293 | 686 | -0.7 | -38.0 | ||
| 2025-11-03T23:43 | 3350 | 681 | 78 | 2 | ||
| 2025-11-03T23:44 | 3695 | 652 | 354 | 1 | ||
| 2025-11-03T23:44 | 3777 | 646 | -4.7 | -40.9 | ||
| 2025-11-03T23:44 | 3859 | 639 | 244 | 3 | ||
| 2025-11-03T23:45 | 4138 | 616 | 285 | 6 | ||
| 2025-11-03T23:45 | 4192 | 612 | -6.8 | -42.4 | ||
| 2025-11-03T23:46 | 4429 | 594 | -8.4 | -41.5 | ||
| 2025-11-03T23:46 | 4493 | 589 | 282 | 9 | ||
| 2025-11-03T23:47 | 4843 | 563 | 273 | 8 | ||
| 2025-11-03T23:48 | 5202 | 537 | -14.2 | -40.3 | ||
| 2025-11-03T23:48 | 5215 | 536 | 280 | 8 | ||
| 2025-11-03T23:49 | 5561 | 512 | 276 | 10 | ||
| 2025-11-03T23:50 | 5805 | 495 | -18.4 | -45.9 | ||
| 2025-11-03T23:50 | 5940 | 487 | 265 | 13 | ||
| 2025-11-03T23:50 | 6010 | 482 | -19.3 | -48.0 | ||
| 2025-11-03T23:51 | 6314 | 463 | 264 | 18 | ||
| 2025-11-03T23:52 | 6516 | 450 | -22.9 | -49.4 | ||
| 2025-11-03T23:52 | 6669 | 441 | 266 | 16 | ||
| 2025-11-03T23:52 | 6759 | 435 | -24.3 | -53.3 | ||
| 2025-11-03T23:53 | 6933 | 425 | 259 | 21 | ||
| 2025-11-03T23:54 | 7193 | 410 | 266 | 19 | ||
| 2025-11-03T23:54 | 7424 | 397 | -29.7 | -57.4 | ||
| 2025-11-03T23:55 | 7558 | 390 | 263 | 23 | ||
| 2025-11-03T23:55 | 7763 | 378 | -31.5 | -58.8 | ||
| 2025-11-03T23:55 | 7769 | 378 | 261 | 27 | ||
| 2025-11-03T23:56 | 8141 | 359 | 264 | 28 | ||
| 2025-11-03T23:57 | 8290 | 351 | -34.8 | -61.3 | ||
| 2025-11-03T23:57 | 8546 | 338 | 266 | 37 | ||
| 2025-11-03T23:58 | 8809 | 326 | -37.7 | -60.9 | ||
| 2025-11-03T23:58 | 8927 | 320 | 264 | 38 | ||
| 2025-11-03T23:59 | 9055 | 314 | -39.5 | -61.3 | ||
| 2025-11-03T23:59 | 9154 | 310 | 264 | 40 | ||
| 2025-11-03T23:59 | 9166 | 309 | -40.0 | -62.7 | ||
| 2025-11-04T00:00 | 9545 | 292 | 263 | 37 | ||
| 2025-11-04T00:01 | 9812 | 281 | 262 | 37 | ||
| 2025-11-04T00:01 | 10038 | 272 | -46.7 | |||
| 2025-11-04T00:02 | 10188 | 265 | 260 | 39 | ||
| 2025-11-04T00:03 | 10545 | 251 | 265 | 42 | ||
| 2025-11-04T00:03 | 10615 | 249 | -50.2 | |||
| 2025-11-04T00:04 | 10891 | 238 | 263 | 44 | ||
| 2025-11-04T00:04 | 11040 | 233 | -52.1 | |||
| 2025-11-04T00:04 | 11148 | 229 | 267 | 43 | ||
| 2025-11-04T00:05 | 11436 | 219 | 268 | 37 | ||
| 2025-11-04T00:05 | 11516 | 216 | -53.1 | |||
| 2025-11-04T00:06 | 11802 | 207 | 259 | 38 | ||
| 2025-11-04T00:07 | 12158 | 196 | 262 | 40 | ||
| 2025-11-04T00:07 | 12242 | 193 | -55.2 | |||
| 2025-11-04T00:08 | 12487 | 186 | 261 | 42 | ||
| 2025-11-04T00:08 | 12527 | 185 | -54.9 | |||
| 2025-11-04T00:09 | 12848 | 176 | 256 | 44 | ||
| 2025-11-04T00:10 | 13104 | 169 | -55.3 | |||
| 2025-11-04T00:10 | 13203 | 166 | 261 | 43 | ||
| 2025-11-04T00:10 | 13251 | 165 | -54.9 | |||
| 2025-11-04T00:11 | 13562 | 157 | 260 | 38 | ||
| 2025-11-04T00:12 | 13918 | 149 | 261 | 37 | ||
| 2025-11-04T00:12 | 13929 | 148 | -57.6 | |||
| 2025-11-04T00:12 | 14081 | 145 | 261 | 35 | ||
| 2025-11-04T00:13 | 14399 | 138 | 252 | 39 | ||
| 2025-11-04T00:14 | 14472 | 136 | -59.6 | |||
| 2025-11-04T00:14 | 14672 | 132 | 254 | 45 | ||
| 2025-11-04T00:15 | 14835 | 128 | 255 | 40 | ||
| 2025-11-04T00:15 | 15047 | 124 | -60.8 | |||
| 2025-11-04T00:16 | 15164 | 122 | 259 | 40 | ||
| 2025-11-04T00:17 | 15409 | 117 | -61.9 | |||
| 2025-11-04T00:17 | 15419 | 117 | 267 | 38 | ||
| 2025-11-04T00:17 | 15563 | 114 | 262 | 34 | ||
| 2025-11-04T00:17 | 15585 | 114 | -62.0 | |||
| 2025-11-04T00:18 | 15752 | 111 | 259 | 34 | ||
| 2025-11-04T00:18 | 15827 | 109 | -62.7 | |||
| 2025-11-04T00:19 | 16060 | 105 | 258 | 38 | ||
| 2025-11-04T00:19 | 16099 | 105 | -64.1 | |||
| 2025-11-04T00:19 | 16319 | 101 | 262 | 31 | ||
| 2025-11-04T00:20 | 16569 | 97 | 240 | 25 | ||
| 2025-11-04T00:20 | 16637 | 96 | -63.2 | |||
| 2025-11-04T00:21 | 16915 | 92 | 257 | 30 | ||
| 2025-11-04T00:22 | 17192 | 87 | -64.9 | |||
| 2025-11-04T00:22 | 17214 | 87 | 250 | 28 | ||
| 2025-11-04T00:23 | 17518 | 83 | -64.7 | |||
| 2025-11-04T00:23 | 17539 | 83 | 249 | 25 | ||
| 2025-11-04T00:24 | 17750 | 80 | -64.3 | |||
| 2025-11-04T00:24 | 17851 | 79 | 261 | 23 | ||
| 2025-11-04T00:25 | 18105 | 75 | 255 | 15 | ||
| 2025-11-04T00:25 | 18123 | 75 | -63.6 | |||
| 2025-11-04T00:25 | 18370 | 72 | -64.8 | |||
| 2025-11-04T00:26 | 18465 | 71 | 217 | 16 | ||
| 2025-11-04T00:26 | 18490 | 71 | -63.3 | |||
| 2025-11-04T00:26 | 18641 | 69 | -61.5 | |||
| 2025-11-04T00:27 | 18769 | 68 | 218 | 23 | ||
| 2025-11-04T00:28 | 19122 | 64 | 232 | 29 | ||
| 2025-11-04T00:28 | 19178 | 63 | -63.5 | |||
| 2025-11-04T00:28 | 19438 | 61 | 239 | 26 | ||
| 2025-11-04T00:29 | 19739 | 58 | 253 | 18 | ||
| 2025-11-04T00:30 | 19814 | 57 | -61.8 | |||
| 2025-11-04T00:30 | 19922 | 56 | 233 | 13 | ||
| 2025-11-04T00:30 | 19991 | 55 | -60.6 | |||
| 2025-11-04T00:30 | 20092 | 55 | -60.2 | |||
| 2025-11-04T00:30 | 20126 | 54 | 242 | 17 | ||
| 2025-11-04T00:31 | 20375 | 52 | 260 | 17 | ||
| 2025-11-04T00:32 | 20476 | 51 | -57.2 | |||
| 2025-11-04T00:32 | 20548 | 51 | 247 | 15 | ||
| 2025-11-04T00:33 | 20881 | 48 | 253 | 18 | ||
| 2025-11-04T00:34 | 21244 | 45 | 257 | 14 | ||
| 2025-11-04T00:34 | 21340 | 45 | -60.0 | |||
| 2025-11-04T00:34 | 21467 | 44 | 248 | 16 | ||
| 2025-11-04T00:35 | 21658 | 43 | 237 | 13 | ||
| 2025-11-04T00:35 | 21823 | 41 | -56.2 | |||
| 2025-11-04T00:35 | 21869 | 41 | 241 | 12 | ||
| 2025-11-04T00:36 | 22220 | 39 | 273 | 11 | ||
| 2025-11-04T00:37 | 22502 | 37 | 208 | 6 | ||
| 2025-11-04T00:38 | 22659 | 36 | -56.2 | |||
| 2025-11-04T00:38 | 22836 | 35 | 182 | 9 | ||
| 2025-11-04T00:39 | 23126 | 34 | -57.5 | |||
| 2025-11-04T00:39 | 23183 | 33 | 226 | 6 | ||
| 2025-11-04T00:40 | 23337 | 33 | 212 | 9 | ||
| 2025-11-04T00:40 | 23638 | 31 | -55.2 | 247 | 11 | |
| 2025-11-04T00:41 | 23784 | 30 | 254 | 6 | ||
| 2025-11-04T00:41 | 23999 | 29 | 199 | 3 | ||
| 2025-11-04T00:42 | 24110 | 29 | 183 | 4 | ||
| 2025-11-04T00:42 | 24222 | 28 | -54.3 | |||
| 2025-11-04T00:43 | 24452 | 27 | 246 | 4 | ||
| 2025-11-04T00:43 | 24497 | 27 | 216 | 2 | ||
| 2025-11-04T00:43 | 24545 | 27 | 173 | 3 | ||
| 2025-11-04T00:43 | 24737 | 26 | 189 | 6 | ||
| 2025-11-04T00:44 | 24957 | 25 | 232 | 4 | ||
| 2025-11-04T00:44 | 25039 | 25 | 228 | 3 | ||
| 2025-11-04T00:44 | 25115 | 25 | -54.8 | |||
| 2025-11-04T00:44 | 25141 | 25 | 203 | 5 | ||
| 2025-11-04T00:45 | 25403 | 24 | 275 | 1 | ||
| 2025-11-04T00:46 | 25684 | 23 | 319 | 3 | ||
| 2025-11-04T00:46 | 25798 | 22 | 42 | 3 | ||
| 2025-11-04T00:46 | 25913 | 22 | 184 | 1 | ||
| 2025-11-04T00:47 | 26063 | 21 | 179 | 5 | ||
| 2025-11-04T00:47 | 26277 | 21 | 197 | 2 | ||
| 2025-11-04T00:48 | 26470 | 20 | -53.5 | |||
| 2025-11-04T00:48 | 26534 | 20 | 15 | 2 | ||
| 2025-11-04T00:49 | 26762 | 19 | 28 | 6 | ||
| 2025-11-04T00:49 | 26934 | 19 | 54 | 5 | ||
| 2025-11-04T00:49 | 27072 | 18 | 51 | 6 | ||
| 2025-11-04T00:50 | 27218 | 18 | 79 | 8 | ||
| 2025-11-04T00:50 | 27364 | 17 | -54.4 | |||
| 2025-11-04T00:50 | 27511 | 17 | 110 | 9 | ||
| 2025-11-04T00:51 | 27817 | 16 | -56.8 | 130 | 8 | |
| 2025-11-04T00:51 | 27935 | 16 | 110 | 4 | ||
| 2025-11-04T00:52 | 28059 | 16 | 79 | 5 | ||
| 2025-11-04T00:52 | 28223 | 15 | 59 | 8 | ||
| 2025-11-04T00:52 | 28266 | 15 | -54.0 | |||
| 2025-11-04T00:52 | 28312 | 15 | 46 | 8 | ||
| 2025-11-04T00:53 | 28393 | 15 | -52.2 | |||
| 2025-11-04T00:53 | 28483 | 15 | 57 | 12 | ||
| 2025-11-04T00:54 | 28892 | 14 | 70 | 16 | ||
| 2025-11-04T00:55 | 29133 | 13 | -53.9 | |||
| 2025-11-04T00:55 | 29280 | 13 | 119 | 14 | ||
| 2025-11-04T00:55 | 29329 | 13 | -52.5 | |||
| 2025-11-04T00:56 | 29535 | 12 | 117 | 7 | ||
| 2025-11-04T00:56 | 29640 | 12 | 83 | 7 | ||
| 2025-11-04T00:57 | 29966 | 12 | -50.3 | 90 | 12 | |
| 2025-11-04T00:57 | 30316 | 11 | -50.5 | 103 | 4 | |
| 2025-11-04T00:58 | 30434 | 11 | 108 | 4 | ||
| 2025-11-04T00:59 | 30739 | 10 | 0 | 0 | ||
| 2025-11-04T00:59 | 30805 | 10 | 41 | 3 | ||
| 2025-11-04T00:59 | 30871 | 10 | -50.8 | |||
| 2025-11-04T01:00 | 31134 | 10 | 64 | 11 | ||
| 2025-11-04T01:00 | 31271 | 10 | 85 | 9 | ||
| 2025-11-04T01:00 | 31482 | 9 | -48.1 | 84 | 8 | |
| 2025-11-04T01:01 | 31554 | 9 | 88 | 4 | ||
| 2025-11-04T01:01 | 31626 | 9 | 47 | 4 | ||
| 2025-11-04T01:01 | 31853 | 9 | 1 | 6 | ||
| 2025-11-04T01:02 | 32032 | 9 | -45.2 | 16 | 9 | |
| 2025-11-04T11:33 | 26 | 1025 | 8.8 | 7.3 | 50 | 0 |
| 2025-11-04T11:33 | 32 | 1025 | 9.3 | 7.2 | 0 | 0 |
| 2025-11-04T11:33 | 64 | 1021 | 12.2 | 4.2 | 76 | 3 |
| 2025-11-04T11:33 | 81 | 1019 | 13.4 | 4.3 | ||
| 2025-11-04T11:34 | 250 | 998 | 12.5 | 3.2 | ||
| 2025-11-04T11:34 | 405 | 980 | 87 | 3 | ||
| 2025-11-04T11:34 | 485 | 971 | 10.8 | -1.6 | ||
| 2025-11-04T11:35 | 582 | 960 | 9.8 | -0.7 | ||
| 2025-11-04T11:35 | 663 | 950 | 94 | 3 | ||
| 2025-11-04T11:35 | 788 | 936 | 8.2 | -3.0 | ||
| 2025-11-04T11:36 | 984 | 914 | 6.3 | -0.7 | ||
| 2025-11-04T11:36 | 1019 | 910 | 308 | 2 | ||
| 2025-11-04T11:37 | 1242 | 886 | 269 | 4 | ||
| 2025-11-04T11:37 | 1247 | 885 | 4.2 | -0.6 | ||
| 2025-11-04T11:37 | 1351 | 874 | 3.5 | -2.9 | ||
| 2025-11-04T11:37 | 1433 | 865 | 3.2 | -7.0 | ||
| 2025-11-04T11:37 | 1473 | 861 | 314 | 3 | ||
| 2025-11-04T11:37 | 1495 | 858 | 3.2 | -10.1 | ||
| 2025-11-04T11:37 | 1539 | 854 | 3.8 | -11.8 | ||
| 2025-11-04T11:38 | 1583 | 849 | 3.8 | -8.3 | ||
| 2025-11-04T11:38 | 1588 | 849 | 298 | 3 | ||
| 2025-11-04T11:38 | 1678 | 839 | 298 | 3 | ||
| 2025-11-04T11:38 | 1723 | 835 | 3.2 | -12.3 | ||
| 2025-11-04T11:38 | 1808 | 826 | 3.0 | -6.7 | ||
| 2025-11-04T11:38 | 1825 | 824 | 316 | 3 | ||
| 2025-11-04T11:39 | 1959 | 811 | 2.4 | -6.7 | ||
| 2025-11-04T11:39 | 2124 | 794 | 2.2 | -15.8 | ||
| 2025-11-04T11:39 | 2178 | 789 | 247 | 3 | ||
| 2025-11-04T11:40 | 2330 | 774 | 266 | 4 | ||
| 2025-11-04T11:40 | 2386 | 769 | 0.4 | -17.4 | ||
| 2025-11-04T11:40 | 2442 | 764 | 0.7 | -25.5 | ||
| 2025-11-04T11:40 | 2503 | 758 | 280 | 3 | ||
| 2025-11-04T11:40 | 2596 | 749 | 264 | 3 | ||
| 2025-11-04T11:41 | 2671 | 742 | -0.2 | -29.4 | ||
| 2025-11-04T11:41 | 2721 | 738 | 269 | 5 | ||
| 2025-11-04T11:41 | 2758 | 734 | 0.3 | -35.1 | ||
| 2025-11-04T11:41 | 2883 | 723 | 269 | 7 | ||
| 2025-11-04T11:41 | 2945 | 717 | 0.8 | -36.9 | ||
| 2025-11-04T11:42 | 3242 | 691 | 294 | 9 | ||
| 2025-11-04T11:43 | 3427 | 675 | 290 | 11 | ||
| 2025-11-04T11:43 | 3499 | 669 | -3.1 | -30.5 | ||
| 2025-11-04T11:43 | 3579 | 662 | 274 | 11 | ||
| 2025-11-04T11:44 | 3922 | 634 | -6.2 | -28.7 | ||
| 2025-11-04T11:44 | 3939 | 633 | 274 | 12 | ||
| 2025-11-04T11:45 | 4230 | 610 | 269 | 14 | ||
| 2025-11-04T11:45 | 4343 | 601 | -7.7 | -35.2 | ||
| 2025-11-04T11:46 | 4443 | 593 | 275 | 14 | ||
| 2025-11-04T11:46 | 4672 | 576 | -10.6 | -27.8 | ||
| 2025-11-04T11:47 | 4794 | 567 | 278 | 15 | ||
| 2025-11-04T11:47 | 5095 | 545 | 272 | 17 | ||
| 2025-11-04T11:47 | 5119 | 543 | -14.7 | -31.3 | ||
| 2025-11-04T11:48 | 5214 | 536 | -14.8 | -39.7 | ||
| 2025-11-04T11:48 | 5276 | 532 | -15.3 | -30.9 | ||
| 2025-11-04T11:48 | 5456 | 519 | 265 | 19 | ||
| 2025-11-04T11:49 | 5581 | 511 | -17.9 | -30.0 | ||
| 2025-11-04T11:49 | 5754 | 499 | -18.5 | -34.6 | ||
| 2025-11-04T11:49 | 5771 | 498 | 262 | 25 | ||
| 2025-11-04T11:49 | 5817 | 495 | -18.9 | -39.8 | ||
| 2025-11-04T11:50 | 5917 | 488 | 262 | 22 | ||
| 2025-11-04T11:50 | 5989 | 483 | -19.8 | -47.0 | ||
| 2025-11-04T11:50 | 6082 | 477 | -20.3 | -50.3 | ||
| 2025-11-04T11:50 | 6149 | 473 | -19.3 | -53.9 | ||
| 2025-11-04T11:51 | 6278 | 465 | -18.8 | -56.9 | 266 | 24 |
| 2025-11-04T11:51 | 6358 | 460 | -19.1 | -53.8 | ||
| 2025-11-04T11:52 | 6640 | 443 | 264 | 22 | ||
| 2025-11-04T11:52 | 6860 | 430 | 264 | 27 | ||
| 2025-11-04T11:53 | 6953 | 424 | -22.9 | -54.1 | ||
| 2025-11-04T11:53 | 7219 | 409 | 260 | 25 | ||
| 2025-11-04T11:54 | 7532 | 392 | 263 | 28 | ||
| 2025-11-04T11:55 | 7786 | 378 | 260 | 30 | ||
| 2025-11-04T11:55 | 7950 | 370 | 260 | 30 | ||
| 2025-11-04T11:55 | 7968 | 369 | -29.5 | -59.0 | ||
| 2025-11-04T11:56 | 8092 | 362 | -30.1 | -49.1 | ||
| 2025-11-04T11:56 | 8165 | 359 | 268 | 35 | ||
| 2025-11-04T11:56 | 8183 | 358 | -29.9 | -47.2 | ||
| 2025-11-04T11:56 | 8286 | 353 | 265 | 40 | ||
| 2025-11-04T11:56 | 8341 | 350 | -30.7 | -39.9 | ||
| 2025-11-04T11:57 | 8512 | 342 | 263 | 41 | ||
| 2025-11-04T11:57 | 8523 | 341 | -32.0 | -37.5 | ||
| 2025-11-04T11:58 | 8857 | 325 | 265 | 44 | ||
| 2025-11-04T11:58 | 9119 | 313 | 259 | 46 | ||
| 2025-11-04T11:59 | 9278 | 306 | -38.0 | -41.2 | ||
| 2025-11-04T11:59 | 9478 | 297 | -39.7 | -43.0 | ||
| 2025-11-04T11:59 | 9512 | 296 | -40.0 | -44.1 | ||
| 2025-11-04T11:59 | 9519 | 296 | 257 | 46 | ||
| 2025-11-04T12:00 | 9909 | 279 | 258 | 47 | ||
| 2025-11-04T12:01 | 10088 | 272 | 258 | 51 | ||
| 2025-11-04T12:02 | 10483 | 256 | 260 | 53 | ||
| 2025-11-04T12:03 | 10770 | 245 | 263 | 57 | ||
| 2025-11-04T12:03 | 10823 | 243 | -51.3 | |||
| 2025-11-04T12:03 | 10924 | 239 | 266 | 55 | ||
| 2025-11-04T12:03 | 10986 | 237 | -50.5 | |||
| 2025-11-04T12:03 | 11079 | 233 | 268 | 59 | ||
| 2025-11-04T12:04 | 11349 | 224 | 266 | 59 | ||
| 2025-11-04T12:05 | 11664 | 213 | 266 | 58 | ||
| 2025-11-04T12:06 | 11955 | 204 | 264 | 53 | ||
| 2025-11-04T12:07 | 12262 | 194 | 262 | 54 | ||
| 2025-11-04T12:08 | 12458 | 188 | -57.3 | |||
| 2025-11-04T12:08 | 12577 | 185 | 263 | 54 | ||
| 2025-11-04T12:09 | 12873 | 176 | 265 | 52 | ||
| 2025-11-04T12:10 | 13010 | 173 | -58.6 | |||
| 2025-11-04T12:10 | 13111 | 170 | 261 | 49 | ||
| 2025-11-04T12:10 | 13147 | 169 | -58.2 | |||
| 2025-11-04T12:11 | 13382 | 163 | 263 | 44 | ||
| 2025-11-04T12:11 | 13414 | 162 | -57.5 | |||
| 2025-11-04T12:12 | 13638 | 156 | 259 | 42 | ||
| 2025-11-04T12:12 | 13648 | 156 | -57.5 | |||
| 2025-11-04T12:13 | 13938 | 149 | 257 | 42 | ||
| 2025-11-04T12:13 | 14066 | 146 | -58.2 | |||
| 2025-11-04T12:14 | 14180 | 143 | 258 | 46 | ||
| 2025-11-04T12:14 | 14364 | 139 | -59.7 | |||
| 2025-11-04T12:15 | 14487 | 136 | 261 | 47 | ||
| 2025-11-04T12:16 | 14781 | 130 | -62.1 | |||
| 2025-11-04T12:16 | 14796 | 130 | 268 | 45 | ||
| 2025-11-04T12:17 | 15068 | 124 | 267 | 40 | ||
| 2025-11-04T12:17 | 15172 | 122 | -63.1 | |||
| 2025-11-04T12:17 | 15295 | 120 | 265 | 38 | ||
| 2025-11-04T12:18 | 15439 | 117 | 261 | 36 | ||
| 2025-11-04T12:18 | 15622 | 113 | -63.4 | |||
| 2025-11-04T12:19 | 15726 | 112 | 263 | 35 | ||
| 2025-11-04T12:19 | 15775 | 111 | -63.0 | |||
| 2025-11-04T12:20 | 15980 | 107 | 251 | 32 | ||
| 2025-11-04T12:20 | 16005 | 107 | -63.6 | |||
| 2025-11-04T12:20 | 16277 | 102 | 253 | 31 | ||
| 2025-11-04T12:21 | 16584 | 97 | 262 | 31 | ||
| 2025-11-04T12:22 | 16781 | 94 | -66.4 | |||
| 2025-11-04T12:22 | 16899 | 92 | 248 | 26 | ||
| 2025-11-04T12:23 | 17153 | 88 | 249 | 32 | ||
| 2025-11-04T12:24 | 17215 | 87 | -65.5 | |||
| 2025-11-04T12:24 | 17467 | 84 | 263 | 33 | ||
| 2025-11-04T12:25 | 17737 | 80 | -62.2 | |||
| 2025-11-04T12:25 | 17792 | 80 | 263 | 28 | ||
| 2025-11-04T12:26 | 18079 | 76 | -62.7 | |||
| 2025-11-04T12:26 | 18135 | 75 | 257 | 27 | ||
| 2025-11-04T12:27 | 18369 | 72 | -64.3 | |||
| 2025-11-04T12:27 | 18462 | 71 | 260 | 27 | ||
| 2025-11-04T12:28 | 18583 | 70 | -62.5 | |||
| 2025-11-04T12:28 | 18782 | 68 | 276 | 18 | ||
| 2025-11-04T12:29 | 18940 | 66 | -60.6 | |||
| 2025-11-04T12:29 | 18970 | 66 | 264 | 10 | ||
| 2025-11-04T12:30 | 19171 | 64 | 243 | 11 | ||
| 2025-11-04T12:30 | 19396 | 61 | 245 | 13 | ||
| 2025-11-04T12:30 | 19489 | 60 | -63.0 | |||
| 2025-11-04T12:31 | 19552 | 60 | 258 | 17 | ||
| 2025-11-04T12:31 | 19676 | 59 | -60.9 | |||
| 2025-11-04T12:31 | 19687 | 59 | 246 | 15 | ||
| 2025-11-04T12:31 | 19772 | 58 | -60.2 | |||
| 2025-11-04T12:32 | 19963 | 56 | -57.9 | |||
| 2025-11-04T12:32 | 20006 | 56 | 237 | 18 | ||
| 2025-11-04T12:33 | 20341 | 53 | 231 | 17 | ||
| 2025-11-04T12:33 | 20459 | 52 | -59.0 | |||
| 2025-11-04T12:34 | 20583 | 51 | 247 | 14 | ||
| 2025-11-04T12:34 | 20597 | 51 | -57.5 | |||
| 2025-11-04T12:35 | 20877 | 48 | -57.4 | |||
| 2025-11-04T12:35 | 20928 | 48 | 225 | 14 | ||
| 2025-11-04T12:35 | 21089 | 47 | -57.1 | |||
| 2025-11-04T12:36 | 21296 | 45 | 233 | 15 | ||
| 2025-11-04T12:36 | 21480 | 44 | -57.1 | |||
| 2025-11-04T12:37 | 21551 | 44 | 255 | 17 | ||
| 2025-11-04T12:37 | 21596 | 43 | -54.4 | |||
| 2025-11-04T12:37 | 21856 | 42 | 234 | 11 | ||
| 2025-11-04T12:38 | 22199 | 39 | 213 | 9 | ||
| 2025-11-04T12:39 | 22496 | 38 | 225 | 10 | ||
| 2025-11-04T12:40 | 22718 | 36 | -57.0 | |||
| 2025-11-04T12:40 | 22808 | 36 | 261 | 9 | ||
| 2025-11-04T12:40 | 22899 | 35 | -54.1 | |||
| 2025-11-04T12:41 | 23083 | 34 | 241 | 9 | ||
| 2025-11-04T12:42 | 23390 | 33 | 274 | 8 | ||
| 2025-11-04T12:42 | 23470 | 32 | -54.2 | |||
| 2025-11-04T12:42 | 23612 | 32 | 339 | 8 | ||
| 2025-11-04T12:43 | 23798 | 31 | 340 | 2 | ||
| 2025-11-04T12:43 | 23945 | 30 | 251 | 3 | ||
| 2025-11-04T12:44 | 24074 | 29 | 268 | 5 | ||
| 2025-11-04T12:44 | 24273 | 28 | -56.3 | |||
| 2025-11-04T12:44 | 24297 | 28 | 275 | 7 | ||
| 2025-11-04T12:45 | 24386 | 28 | 257 | 2 | ||
| 2025-11-04T12:45 | 24455 | 28 | 237 | 3 | ||
| 2025-11-04T12:45 | 24525 | 27 | -54.1 | |||
| 2025-11-04T12:45 | 24667 | 27 | 271 | 2 | ||
| 2025-11-04T12:46 | 24863 | 26 | 224 | 3 | ||
| 2025-11-04T12:47 | 25089 | 25 | 307 | 3 | ||
| 2025-11-04T12:47 | 25273 | 24 | 347 | 3 | ||
| 2025-11-04T12:48 | 25433 | 24 | 317 | 3 | ||
| 2025-11-04T12:48 | 25487 | 24 | -53.8 | |||
| 2025-11-04T12:48 | 25624 | 23 | 79 | 3 | ||
| 2025-11-04T12:48 | 25739 | 23 | 10 | 3 | ||
| 2025-11-04T12:49 | 25825 | 22 | -52.8 | |||
| 2025-11-04T12:49 | 25943 | 22 | 18 | 7 | ||
| 2025-11-04T12:49 | 26121 | 21 | 55 | 6 | ||
| 2025-11-04T12:50 | 26400 | 20 | 127 | 6 | ||
| 2025-11-04T12:51 | 26590 | 20 | 158 | 4 | ||
| 2025-11-04T12:51 | 26718 | 19 | 122 | 4 | ||
| 2025-11-04T12:51 | 26751 | 19 | 131 | 3 | ||
| 2025-11-04T12:51 | 26821 | 19 | 180 | 4 | ||
| 2025-11-04T12:51 | 26886 | 19 | -54.4 | |||
| 2025-11-04T12:52 | 26957 | 19 | 151 | 1 | ||
| 2025-11-04T12:52 | 27060 | 18 | 352 | 3 | ||
| 2025-11-04T12:52 | 27092 | 18 | -53.8 | |||
| 2025-11-04T12:53 | 27417 | 17 | 39 | 6 | ||
| 2025-11-04T12:53 | 27719 | 17 | 66 | 8 | ||
| 2025-11-04T12:54 | 27797 | 16 | -55.5 | |||
| 2025-11-04T12:54 | 27912 | 16 | 66 | 10 | ||
| 2025-11-04T12:54 | 28031 | 16 | 68 | 7 | ||
| 2025-11-04T12:55 | 28114 | 16 | 89 | 8 | ||
| 2025-11-04T12:55 | 28320 | 15 | -55.7 | |||
| 2025-11-04T12:55 | 28368 | 15 | 32 | 5 | ||
| 2025-11-04T12:56 | 28536 | 15 | 48 | 4 | ||
| 2025-11-04T12:56 | 28763 | 14 | 352 | 7 | ||
| 2025-11-04T12:56 | 28851 | 14 | -52.3 | |||
| 2025-11-04T12:57 | 29090 | 13 | 20 | 17 | ||
| 2025-11-04T12:58 | 29387 | 13 | 51 | 14 | ||
| 2025-11-04T12:58 | 29541 | 13 | -52.6 | |||
| 2025-11-04T12:58 | 29643 | 12 | 43 | 8 | ||
| 2025-11-04T12:59 | 29752 | 12 | -51.2 | |||
| 2025-11-04T12:59 | 29912 | 12 | 20 | 15 | ||
| 2025-11-04T12:59 | 30082 | 12 | 29 | 19 | ||
| 2025-11-04T13:00 | 30255 | 11 | -48.3 | |||
| 2025-11-04T13:00 | 30436 | 11 | 56 | 13 | ||
| 2025-11-04T13:01 | 30745 | 10 | 48 | 18 | ||
| 2025-11-04T13:02 | 31236 | 10 | -46.8 | 59 | 21 | |
| 2025-11-04T23:33 | 26 | 1024 | 9.5 | 6.0 | 310 | 1 |
| 2025-11-04T23:33 | 36 | 1023 | 9.3 | 6.0 | 0 | 0 |
| 2025-11-04T23:33 | 88 | 1017 | 238 | 3 | ||
| 2025-11-04T23:33 | 103 | 1015 | 238 | 1 | ||
| 2025-11-04T23:33 | 116 | 1013 | 8.3 | 5.1 | ||
| 2025-11-04T23:33 | 147 | 1010 | 11.1 | 3.4 | ||
| 2025-11-04T23:34 | 194 | 1004 | 11.5 | 2.8 | ||
| 2025-11-04T23:34 | 374 | 983 | 11.5 | 1.2 | ||
| 2025-11-04T23:34 | 421 | 977 | 39 | 2 | ||
| 2025-11-04T23:34 | 426 | 976 | 11.8 | -0.4 | ||
| 2025-11-04T23:35 | 542 | 963 | 11.7 | -1.5 | ||
| 2025-11-04T23:35 | 599 | 956 | 11.7 | 1.3 | ||
| 2025-11-04T23:35 | 753 | 939 | 11.0 | -0.2 | ||
| 2025-11-04T23:35 | 764 | 938 | 200 | 2 | ||
| 2025-11-04T23:35 | 833 | 930 | 10.5 | 2.1 | ||
| 2025-11-04T23:35 | 844 | 929 | 188 | 3 | ||
| 2025-11-04T23:36 | 933 | 919 | 9.8 | -0.1 | ||
| 2025-11-04T23:36 | 978 | 914 | 199 | 3 | ||
| 2025-11-04T23:36 | 1006 | 911 | 9.3 | 0.2 | ||
| 2025-11-04T23:36 | 1129 | 898 | 182 | 1 | ||
| 2025-11-04T23:36 | 1200 | 890 | 8.3 | -6.3 | 146 | 3 |
| 2025-11-04T23:37 | 1340 | 875 | 7.4 | -9.1 | ||
| 2025-11-04T23:37 | 1541 | 854 | 131 | 3 | ||
| 2025-11-04T23:38 | 1558 | 852 | 5.8 | -7.4 | ||
| 2025-11-04T23:38 | 1727 | 835 | 4.9 | -6.6 | ||
| 2025-11-04T23:38 | 1739 | 833 | 138 | 2 | ||
| 2025-11-04T23:39 | 1936 | 813 | 308 | 3 | ||
| 2025-11-04T23:39 | 1984 | 809 | 3.1 | -4.1 | ||
| 2025-11-04T23:39 | 2036 | 803 | 3.7 | -6.9 | ||
| 2025-11-04T23:39 | 2093 | 798 | 294 | 6 | ||
| 2025-11-04T23:39 | 2121 | 795 | 3.5 | -8.2 | ||
| 2025-11-04T23:39 | 2170 | 790 | 3.3 | -5.4 | ||
| 2025-11-04T23:39 | 2234 | 784 | 3.5 | -12.1 | ||
| 2025-11-04T23:40 | 2250 | 782 | 268 | 4 | ||
| 2025-11-04T23:40 | 2375 | 771 | 273 | 7 | ||
| 2025-11-04T23:40 | 2412 | 767 | 2.1 | -10.1 | ||
| 2025-11-04T23:40 | 2454 | 763 | 2.6 | -12.1 | ||
| 2025-11-04T23:40 | 2518 | 757 | 248 | 6 | ||
| 2025-11-04T23:41 | 2634 | 746 | 243 | 6 | ||
| 2025-11-04T23:41 | 2651 | 745 | 2.3 | -21.0 | ||
| 2025-11-04T23:41 | 2859 | 726 | 271 | 5 | ||
| 2025-11-04T23:42 | 3184 | 697 | 257 | 5 | ||
| 2025-11-04T23:43 | 3323 | 685 | 244 | 7 | ||
| 2025-11-04T23:43 | 3341 | 683 | -3.0 | -25.3 | ||
| 2025-11-04T23:43 | 3461 | 673 | 265 | 8 | ||
| 2025-11-04T23:44 | 3809 | 644 | 260 | 11 | ||
| 2025-11-04T23:45 | 4177 | 614 | 271 | 12 | ||
| 2025-11-04T23:46 | 4362 | 599 | -8.9 | -38.6 | ||
| 2025-11-04T23:46 | 4456 | 592 | -9.3 | -34.4 | ||
| 2025-11-04T23:46 | 4533 | 586 | 263 | 14 | ||
| 2025-11-04T23:46 | 4551 | 585 | -10.0 | -27.7 | ||
| 2025-11-04T23:47 | 4709 | 573 | -11.0 | -29.6 | ||
| 2025-11-04T23:47 | 4796 | 566 | 249 | 14 | ||
| 2025-11-04T23:47 | 4814 | 565 | -11.2 | -43.5 | ||
| 2025-11-04T23:47 | 4929 | 557 | -11.4 | -45.7 | ||
| 2025-11-04T23:47 | 4987 | 552 | 270 | 12 | ||
| 2025-11-04T23:47 | 5034 | 549 | -10.9 | -45.4 | ||
| 2025-11-04T23:48 | 5214 | 536 | 255 | 12 | ||
| 2025-11-04T23:49 | 5508 | 516 | 269 | 12 | ||
| 2025-11-04T23:49 | 5570 | 512 | -14.2 | -44.1 | ||
| 2025-11-04T23:50 | 5836 | 494 | -15.9 | -45.4 | ||
| 2025-11-04T23:50 | 5847 | 493 | 260 | 15 | ||
| 2025-11-04T23:51 | 6183 | 472 | 256 | 17 | ||
| 2025-11-04T23:51 | 6421 | 457 | -19.6 | -45.6 | ||
| 2025-11-04T23:52 | 6514 | 451 | 258 | 19 | ||
| 2025-11-04T23:52 | 6682 | 441 | -20.8 | -28.1 | ||
| 2025-11-04T23:53 | 6873 | 430 | 266 | 26 | ||
| 2025-11-04T23:53 | 6944 | 426 | -22.7 | -27.5 | ||
| 2025-11-04T23:53 | 6998 | 423 | 272 | 29 | ||
| 2025-11-04T23:53 | 7107 | 416 | -23.5 | -30.2 | ||
| 2025-11-04T23:53 | 7141 | 414 | 268 | 29 | ||
| 2025-11-04T23:54 | 7176 | 413 | -23.8 | -32.4 | ||
| 2025-11-04T23:55 | 7501 | 394 | -26.5 | -34.2 | 266 | 29 |
| 2025-11-04T23:55 | 7705 | 383 | -27.9 | -32.8 | ||
| 2025-11-04T23:55 | 7839 | 376 | 263 | 33 | ||
| 2025-11-04T23:56 | 7912 | 372 | -29.7 | -34.3 | ||
| 2025-11-04T23:56 | 8158 | 360 | -31.0 | -33.2 | ||
| 2025-11-04T23:56 | 8194 | 358 | 263 | 42 | ||
| 2025-11-04T23:57 | 8474 | 344 | 261 | 44 | ||
| 2025-11-04T23:58 | 8751 | 331 | 255 | 49 | ||
| 2025-11-04T23:58 | 8798 | 329 | -34.4 | -36.2 | ||
| 2025-11-04T23:58 | 8892 | 324 | 253 | 49 | ||
| 2025-11-04T23:59 | 9012 | 319 | 254 | 53 | ||
| 2025-11-04T23:59 | 9019 | 318 | -35.6 | -37.8 | ||
| 2025-11-04T23:59 | 9167 | 312 | 258 | 53 | ||
| 2025-11-04T23:59 | 9247 | 308 | -37.1 | -39.5 | ||
| 2025-11-04T23:59 | 9272 | 307 | 257 | 57 | ||
| 2025-11-05T00:00 | 9504 | 297 | 252 | 57 | ||
| 2025-11-05T00:00 | 9607 | 292 | -39.2 | -41.5 | ||
| 2025-11-05T00:00 | 9671 | 290 | 255 | 61 | ||
| 2025-11-05T00:00 | 9702 | 288 | -40.0 | -42.2 | ||
| 2025-11-05T00:01 | 9790 | 285 | 254 | 62 | ||
| 2025-11-05T00:01 | 10008 | 276 | 254 | 64 | ||
| 2025-11-05T00:02 | 10410 | 259 | 254 | 66 | ||
| 2025-11-05T00:03 | 10602 | 252 | -48.2 | |||
| 2025-11-05T00:03 | 10783 | 245 | 255 | 66 | ||
| 2025-11-05T00:04 | 11130 | 232 | 256 | 67 | ||
| 2025-11-05T00:05 | 11369 | 224 | -54.7 | |||
| 2025-11-05T00:05 | 11401 | 223 | 259 | 72 | ||
| 2025-11-05T00:05 | 11554 | 218 | -55.3 | |||
| 2025-11-05T00:06 | 11713 | 212 | 263 | 67 | ||
| 2025-11-05T00:06 | 11900 | 206 | 263 | 64 | ||
| 2025-11-05T00:06 | 11958 | 204 | -57.3 | |||
| 2025-11-05T00:07 | 12124 | 199 | 262 | 61 | ||
| 2025-11-05T00:08 | 12314 | 193 | 262 | 56 | ||
| 2025-11-05T00:08 | 12417 | 190 | -58.1 | |||
| 2025-11-05T00:09 | 12643 | 183 | 265 | 54 | ||
| 2025-11-05T00:09 | 12840 | 177 | 266 | 53 | ||
| 2025-11-05T00:09 | 12889 | 176 | -59.6 | |||
| 2025-11-05T00:10 | 13170 | 168 | 265 | 51 | ||
| 2025-11-05T00:10 | 13213 | 167 | -59.4 | |||
| 2025-11-05T00:11 | 13392 | 162 | 266 | 51 | ||
| 2025-11-05T00:12 | 13706 | 154 | 265 | 47 | ||
| 2025-11-05T00:13 | 14012 | 147 | 259 | 44 | ||
| 2025-11-05T00:14 | 14293 | 141 | -61.2 | |||
| 2025-11-05T00:14 | 14338 | 140 | 265 | 46 | ||
| 2025-11-05T00:15 | 14643 | 133 | 262 | 38 | ||
| 2025-11-05T00:16 | 14959 | 126 | 257 | 38 | ||
| 2025-11-05T00:16 | 15024 | 125 | -62.3 | |||
| 2025-11-05T00:16 | 15142 | 123 | -62.8 | |||
| 2025-11-05T00:17 | 15272 | 120 | -63.0 | |||
| 2025-11-05T00:17 | 15277 | 120 | 254 | 38 | ||
| 2025-11-05T00:17 | 15421 | 117 | -63.7 | |||
| 2025-11-05T00:18 | 15588 | 114 | 255 | 39 | ||
| 2025-11-05T00:19 | 15812 | 110 | 259 | 39 | ||
| 2025-11-05T00:19 | 15848 | 109 | -65.2 | |||
| 2025-11-05T00:19 | 16009 | 106 | -65.3 | |||
| 2025-11-05T00:19 | 16085 | 105 | 257 | 34 | ||
| 2025-11-05T00:20 | 16340 | 101 | -67.0 | |||
| 2025-11-05T00:20 | 16411 | 100 | 254 | 35 | ||
| 2025-11-05T00:21 | 16744 | 94 | 254 | 33 | ||
| 2025-11-05T00:21 | 16791 | 93 | -67.6 | |||
| 2025-11-05T00:22 | 16921 | 91 | 262 | 33 | ||
| 2025-11-05T00:23 | 17149 | 88 | 254 | 29 | ||
| 2025-11-05T00:23 | 17183 | 88 | -67.4 | |||
| 2025-11-05T00:24 | 17452 | 84 | 248 | 29 | ||
| 2025-11-05T00:24 | 17716 | 80 | 249 | 37 | ||
| 2025-11-05T00:25 | 17754 | 80 | -67.5 | |||
| 2025-11-05T00:25 | 17823 | 79 | -65.3 | |||
| 2025-11-05T00:25 | 17831 | 79 | 259 | 36 | ||
| 2025-11-05T00:25 | 18061 | 76 | 273 | 26 | ||
| 2025-11-05T00:26 | 18109 | 75 | -62.9 | |||
| 2025-11-05T00:26 | 18387 | 72 | 271 | 25 | ||
| 2025-11-05T00:27 | 18422 | 71 | -62.2 | |||
| 2025-11-05T00:27 | 18559 | 70 | 277 | 19 | ||
| 2025-11-05T00:28 | 18787 | 67 | 255 | 14 | ||
| 2025-11-05T00:28 | 18803 | 67 | -62.4 | |||
| 2025-11-05T00:28 | 18953 | 66 | -62.0 | |||
| 2025-11-05T00:28 | 18960 | 65 | 255 | 17 | ||
| 2025-11-05T00:29 | 19229 | 63 | -63.2 | |||
| 2025-11-05T00:29 | 19290 | 62 | 241 | 18 | ||
| 2025-11-05T00:30 | 19501 | 60 | -62.2 | |||
| 2025-11-05T00:30 | 19564 | 59 | 253 | 16 | ||
| 2025-11-05T00:31 | 19894 | 56 | 249 | 18 | ||
| 2025-11-05T00:31 | 19951 | 56 | -62.0 | |||
| 2025-11-05T00:32 | 20197 | 54 | -61.7 | |||
| 2025-11-05T00:32 | 20230 | 53 | 259 | 22 | ||
| 2025-11-05T00:33 | 20582 | 50 | 264 | 17 | ||
| 2025-11-05T00:33 | 20594 | 50 | -59.3 | |||
| 2025-11-05T00:34 | 20968 | 47 | 262 | 14 | ||
| 2025-11-05T00:34 | 21098 | 46 | 249 | 15 | ||
| 2025-11-05T00:35 | 21208 | 46 | -59.1 | |||
| 2025-11-05T00:35 | 21248 | 45 | 252 | 17 | ||
| 2025-11-05T00:35 | 21361 | 44 | -57.7 | |||
| 2025-11-05T00:36 | 21493 | 44 | 227 | 10 | ||
| 2025-11-05T00:36 | 21760 | 42 | 244 | 9 | ||
| 2025-11-05T00:37 | 21835 | 41 | -57.1 | |||
| 2025-11-05T00:37 | 21881 | 41 | 246 | 9 | ||
| 2025-11-05T00:37 | 22086 | 40 | 234 | 11 | ||
| 2025-11-05T00:38 | 22212 | 39 | -56.1 | |||
| 2025-11-05T00:38 | 22229 | 39 | 245 | 13 | ||
| 2025-11-05T00:38 | 22362 | 38 | 234 | 10 | ||
| 2025-11-05T00:38 | 22380 | 38 | -55.5 | |||
| 2025-11-05T00:38 | 22515 | 37 | 226 | 9 | ||
| 2025-11-05T00:39 | 22687 | 36 | 244 | 6 | ||
| 2025-11-05T00:39 | 22833 | 35 | 249 | 8 | ||
| 2025-11-05T00:39 | 22852 | 35 | -55.7 | |||
| 2025-11-05T00:40 | 22961 | 35 | 275 | 3 | ||
| 2025-11-05T00:40 | 22997 | 34 | -54.2 | |||
| 2025-11-05T00:40 | 23147 | 34 | 255 | 1 | ||
| 2025-11-05T00:41 | 23280 | 33 | 162 | 3 | ||
| 2025-11-05T00:41 | 23419 | 32 | 179 | 4 | ||
| 2025-11-05T00:42 | 23764 | 30 | -56.9 | 254 | 6 | |
| 2025-11-05T00:42 | 23956 | 30 | 232 | 2 | ||
| 2025-11-05T00:43 | 24040 | 29 | -54.7 | |||
| 2025-11-05T00:43 | 24263 | 28 | 246 | 4 | ||
| 2025-11-05T00:44 | 24540 | 27 | -56.6 | |||
| 2025-11-05T00:44 | 24587 | 27 | 292 | 6 | ||
| 2025-11-05T00:44 | 24659 | 26 | 287 | 2 | ||
| 2025-11-05T00:45 | 24806 | 26 | 143 | 3 | ||
| 2025-11-05T00:45 | 24882 | 26 | -55.4 | |||
| 2025-11-05T00:46 | 25111 | 25 | 137 | 2 | ||
| 2025-11-05T00:46 | 25295 | 24 | 188 | 4 | ||
| 2025-11-05T00:46 | 25347 | 24 | -56.1 | |||
| 2025-11-05T00:47 | 25538 | 23 | 244 | 1 | ||
| 2025-11-05T00:47 | 25680 | 23 | 325 | 3 | ||
| 2025-11-05T00:47 | 25821 | 22 | 317 | 4 | ||
| 2025-11-05T00:48 | 25938 | 22 | -55.7 | |||
| 2025-11-05T00:48 | 25998 | 21 | 191 | 3 | ||
| 2025-11-05T00:48 | 26090 | 21 | 225 | 2 | ||
| 2025-11-05T00:49 | 26240 | 21 | 25 | 3 | ||
| 2025-11-05T00:49 | 26400 | 20 | -53.8 | 89 | 7 | |
| 2025-11-05T00:50 | 26691 | 19 | 115 | 11 | ||
| 2025-11-05T00:51 | 27036 | 18 | 146 | 12 | ||
| 2025-11-05T00:51 | 27180 | 18 | -53.7 | |||
| 2025-11-05T00:51 | 27215 | 18 | 117 | 6 | ||
| 2025-11-05T00:52 | 27554 | 17 | 71 | 6 | ||
| 2025-11-05T00:52 | 27668 | 17 | -52.9 | |||
| 2025-11-05T00:53 | 27867 | 16 | 93 | 5 | ||
| 2025-11-05T00:53 | 28030 | 16 | 63 | 5 | ||
| 2025-11-05T00:53 | 28155 | 15 | 56 | 11 | ||
| 2025-11-05T00:55 | 28593 | 14 | 100 | 9 | ||
| 2025-11-05T00:55 | 28681 | 14 | -51.7 | 105 | 6 | |
| 2025-11-05T00:55 | 28775 | 14 | 34 | 5 | ||
| 2025-11-05T00:56 | 28966 | 14 | 42 | 7 | ||
| 2025-11-05T00:56 | 29312 | 13 | 81 | 15 | ||
| 2025-11-05T00:57 | 29520 | 12 | 102 | 8 | ||
| 2025-11-05T00:57 | 29678 | 12 | 96 | 9 | ||
| 2025-11-05T00:57 | 29730 | 12 | -51.0 | |||
| 2025-11-05T00:58 | 29785 | 12 | 69 | 5 | ||
| 2025-11-05T00:58 | 29898 | 12 | 78 | 9 | ||
| 2025-11-05T00:58 | 30010 | 12 | 88 | 8 | ||
| 2025-11-05T00:59 | 30183 | 11 | 53 | 10 | ||
| 2025-11-05T00:59 | 30245 | 11 | -45.8 | |||
| 2025-11-05T01:00 | 30616 | 11 | 50 | 17 | ||
| 2025-11-05T01:01 | 31007 | 10 | 54 | 18 | ||
| 2025-11-05T01:01 | 31325 | 9 | -44.2 | 62 | 21 | |
| 2025-11-05T11:33 | 26 | 1022 | 11.1 | 9.0 | 0 | 0 |
| 2025-11-05T11:33 | 33 | 1021 | 11.6 | 9.2 | 0 | 0 |
| 2025-11-05T11:33 | 79 | 1015 | 14.5 | 7.8 | 40 | 3 |
| 2025-11-05T11:33 | 178 | 1003 | 29 | 5 | ||
| 2025-11-05T11:34 | 320 | 987 | 13.7 | 7.0 | 39 | 7 |
| 2025-11-05T11:34 | 463 | 970 | 13.2 | 0.9 | ||
| 2025-11-05T11:34 | 505 | 965 | 13.6 | -5.5 | ||
| 2025-11-05T11:35 | 552 | 960 | 13.7 | -0.4 | ||
| 2025-11-05T11:35 | 583 | 956 | 59 | 3 | ||
| 2025-11-05T11:35 | 609 | 954 | 13.2 | 4.4 | ||
| 2025-11-05T11:35 | 682 | 945 | 62 | 3 | ||
| 2025-11-05T11:35 | 741 | 939 | 11.9 | 6.6 | ||
| 2025-11-05T11:35 | 762 | 936 | 74 | 3 | ||
| 2025-11-05T11:36 | 889 | 922 | 10.7 | 9.6 | ||
| 2025-11-05T11:36 | 895 | 922 | 123 | 3 | ||
| 2025-11-05T11:36 | 999 | 910 | 106 | 3 | ||
| 2025-11-05T11:36 | 1026 | 907 | 10.4 | 7.8 | ||
| 2025-11-05T11:36 | 1091 | 900 | 172 | 4 | ||
| 2025-11-05T11:37 | 1328 | 875 | 8.5 | 5.2 | ||
| 2025-11-05T11:37 | 1421 | 865 | 8.2 | 2.0 | 154 | 8 |
| 2025-11-05T11:37 | 1476 | 859 | 7.7 | 1.5 | ||
| 2025-11-05T11:38 | 1526 | 854 | 7.5 | 0.7 | ||
| 2025-11-05T11:38 | 1576 | 849 | 6.9 | 2.0 | ||
| 2025-11-05T11:38 | 1631 | 843 | 6.6 | -0.4 | ||
| 2025-11-05T11:38 | 1748 | 831 | 5.6 | 0.8 | ||
| 2025-11-05T11:38 | 1753 | 831 | 157 | 8 | ||
| 2025-11-05T11:38 | 1781 | 828 | 5.4 | 0.2 | ||
| 2025-11-05T11:39 | 1819 | 824 | 5.1 | -0.9 | ||
| 2025-11-05T11:39 | 1895 | 816 | 4.6 | 0.0 | ||
| 2025-11-05T11:39 | 1976 | 808 | 152 | 8 | ||
| 2025-11-05T11:39 | 2003 | 806 | 4.2 | -3.8 | ||
| 2025-11-05T11:39 | 2107 | 795 | 3.6 | -6.1 | ||
| 2025-11-05T11:40 | 2272 | 779 | 2.4 | -7.8 | ||
| 2025-11-05T11:40 | 2283 | 778 | 136 | 6 | ||
| 2025-11-05T11:40 | 2329 | 774 | 2.6 | -9.3 | ||
| 2025-11-05T11:40 | 2417 | 766 | 1.8 | -4.5 | ||
| 2025-11-05T11:40 | 2441 | 763 | 118 | 5 | ||
| 2025-11-05T11:40 | 2470 | 761 | 1.9 | -6.2 | ||
| 2025-11-05T11:41 | 2558 | 752 | 1.3 | -5.6 | ||
| 2025-11-05T11:41 | 2587 | 750 | 133 | 4 | ||
| 2025-11-05T11:41 | 2622 | 746 | 1.3 | -9.6 | ||
| 2025-11-05T11:41 | 2691 | 740 | 0.6 | -4.2 | ||
| 2025-11-05T11:41 | 2720 | 737 | 209 | 2 | ||
| 2025-11-05T11:41 | 2737 | 736 | 0.2 | -3.5 | ||
| 2025-11-05T11:41 | 2800 | 730 | 0.0 | -6.4 | ||
| 2025-11-05T11:41 | 2811 | 729 | 148 | 2 | ||
| 2025-11-05T11:42 | 2882 | 723 | -0.3 | -6.3 | ||
| 2025-11-05T11:42 | 2915 | 720 | -0.1 | -9.3 | ||
| 2025-11-05T11:42 | 2920 | 719 | 200 | 5 | ||
| 2025-11-05T11:42 | 2987 | 713 | -0.5 | -8.7 | ||
| 2025-11-05T11:42 | 3073 | 705 | -0.9 | -11.1 | ||
| 2025-11-05T11:42 | 3144 | 699 | 205 | 5 | ||
| 2025-11-05T11:42 | 3156 | 698 | -1.5 | -9.4 | ||
| 2025-11-05T11:43 | 3219 | 693 | -1.5 | -10.6 | ||
| 2025-11-05T11:43 | 3292 | 686 | -2.1 | -14.2 | ||
| 2025-11-05T11:43 | 3389 | 678 | -3.0 | -19.8 | ||
| 2025-11-05T11:43 | 3453 | 673 | -3.3 | -27.9 | ||
| 2025-11-05T11:43 | 3486 | 670 | 189 | 3 | ||
| 2025-11-05T11:44 | 3611 | 659 | 183 | 3 | ||
| 2025-11-05T11:44 | 3703 | 652 | 114 | 1 | ||
| 2025-11-05T11:44 | 3730 | 649 | -4.6 | -29.8 | ||
| 2025-11-05T11:45 | 3919 | 634 | -5.3 | -32.2 | 250 | 3 |
| 2025-11-05T11:45 | 4016 | 626 | 259 | 2 | ||
| 2025-11-05T11:45 | 4084 | 621 | -6.8 | -26.0 | ||
| 2025-11-05T11:45 | 4140 | 616 | -6.9 | -29.2 | ||
| 2025-11-05T11:45 | 4162 | 615 | 293 | 5 | ||
| 2025-11-05T11:46 | 4196 | 612 | -6.6 | -42.3 | ||
| 2025-11-05T11:46 | 4325 | 602 | 287 | 6 | ||
| 2025-11-05T11:46 | 4348 | 600 | -6.6 | -44.9 | ||
| 2025-11-05T11:46 | 4415 | 595 | 293 | 7 | ||
| 2025-11-05T11:46 | 4500 | 588 | 280 | 8 | ||
| 2025-11-05T11:47 | 4621 | 579 | 284 | 7 | ||
| 2025-11-05T11:47 | 4761 | 569 | -9.2 | -38.8 | ||
| 2025-11-05T11:47 | 4813 | 565 | 276 | 9 | ||
| 2025-11-05T11:48 | 5020 | 550 | 286 | 7 | ||
| 2025-11-05T11:48 | 5086 | 546 | -11.5 | -34.5 | ||
| 2025-11-05T11:48 | 5155 | 541 | -11.8 | -27.1 | ||
| 2025-11-05T11:48 | 5239 | 535 | 274 | 10 | ||
| 2025-11-05T11:49 | 5417 | 522 | 286 | 10 | ||
| 2025-11-05T11:49 | 5535 | 514 | 300 | 10 | ||
| 2025-11-05T11:49 | 5564 | 512 | -15.8 | -23.0 | ||
| 2025-11-05T11:49 | 5622 | 508 | -16.4 | -20.8 | ||
| 2025-11-05T11:50 | 5673 | 505 | 290 | 13 | ||
| 2025-11-05T11:50 | 5706 | 503 | -16.5 | -19.1 | ||
| 2025-11-05T11:50 | 5825 | 495 | -15.2 | -17.0 | ||
| 2025-11-05T11:50 | 5841 | 494 | 274 | 16 | ||
| 2025-11-05T11:51 | 6173 | 472 | 264 | 16 | ||
| 2025-11-05T11:52 | 6529 | 450 | 267 | 18 | ||
| 2025-11-05T11:53 | 6771 | 436 | 266 | 20 | ||
| 2025-11-05T11:53 | 6832 | 432 | -21.6 | -23.6 | ||
| 2025-11-05T11:53 | 7000 | 423 | 275 | 27 | ||
| 2025-11-05T11:54 | 7321 | 405 | 269 | 36 | ||
| 2025-11-05T11:55 | 7494 | 395 | 260 | 44 | ||
| 2025-11-05T11:55 | 7556 | 392 | -23.1 | -24.8 | ||
| 2025-11-05T11:56 | 7863 | 376 | 243 | 44 | ||
| 2025-11-05T11:56 | 8007 | 368 | -24.8 | -27.0 | ||
| 2025-11-05T11:57 | 8229 | 357 | 237 | 42 | ||
| 2025-11-05T11:57 | 8386 | 350 | -27.9 | -29.9 | ||
| 2025-11-05T11:57 | 8458 | 346 | 225 | 43 | ||
| 2025-11-05T11:58 | 8676 | 336 | -30.1 | -32.4 | ||
| 2025-11-05T11:58 | 8788 | 330 | 219 | 48 | ||
| 2025-11-05T11:59 | 8936 | 324 | 221 | 49 | ||
| 2025-11-05T11:59 | 9059 | 318 | -32.3 | -33.9 | ||
| 2025-11-05T11:59 | 9143 | 314 | -32.3 | -34.0 | ||
| 2025-11-05T11:59 | 9249 | 310 | -32.5 | -34.8 | 226 | 56 |
| 2025-11-05T12:00 | 9356 | 305 | 230 | 54 | ||
| 2025-11-05T12:00 | 9451 | 301 | 229 | 57 | ||
| 2025-11-05T12:00 | 9552 | 296 | 231 | 58 | ||
| 2025-11-05T12:00 | 9586 | 295 | -35.1 | -37.0 | ||
| 2025-11-05T12:01 | 9796 | 286 | 233 | 59 | ||
| 2025-11-05T12:01 | 9966 | 279 | -38.4 | -42.1 | ||
| 2025-11-05T12:02 | 10092 | 274 | -39.5 | -43.9 | ||
| 2025-11-05T12:02 | 10139 | 272 | -40.0 | -44.2 | ||
| 2025-11-05T12:02 | 10213 | 269 | 236 | 59 | ||
| 2025-11-05T12:03 | 10619 | 254 | 234 | 58 | ||
| 2025-11-05T12:04 | 11034 | 238 | 234 | 58 | ||
| 2025-11-05T12:05 | 11467 | 223 | 232 | 59 | ||
| 2025-11-05T12:05 | 11557 | 220 | -53.5 | |||
| 2025-11-05T12:06 | 11858 | 210 | 233 | 61 | ||
| 2025-11-05T12:07 | 12089 | 202 | 230 | 61 | ||
| 2025-11-05T12:07 | 12288 | 196 | 229 | 61 | ||
| 2025-11-05T12:08 | 12435 | 191 | 230 | 58 | ||
| 2025-11-05T12:09 | 12832 | 179 | 236 | 59 | ||
| 2025-11-05T12:09 | 12875 | 178 | -65.6 | |||
| 2025-11-05T12:09 | 13057 | 173 | -66.6 | |||
| 2025-11-05T12:10 | 13254 | 167 | 243 | 60 | ||
| 2025-11-05T12:10 | 13438 | 162 | -63.3 | |||
| 2025-11-05T12:11 | 13635 | 157 | 247 | 56 | ||
| 2025-11-05T12:11 | 13736 | 155 | -63.6 | |||
| 2025-11-05T12:12 | 14038 | 147 | 261 | 53 | ||
| 2025-11-05T12:12 | 14288 | 141 | -62.8 | |||
| 2025-11-05T12:13 | 14430 | 138 | -62.4 | |||
| 2025-11-05T12:13 | 14458 | 138 | 255 | 44 | ||
| 2025-11-05T12:13 | 14710 | 132 | -62.8 | |||
| 2025-11-05T12:14 | 14839 | 129 | 253 | 41 | ||
| 2025-11-05T12:14 | 14852 | 129 | -62.1 | |||
| 2025-11-05T12:14 | 15073 | 124 | 251 | 45 | ||
| 2025-11-05T12:14 | 15127 | 123 | -62.8 | |||
| 2025-11-05T12:15 | 15453 | 117 | 255 | 38 | ||
| 2025-11-05T12:15 | 15513 | 116 | -63.1 | |||
| 2025-11-05T12:16 | 15653 | 113 | -63.3 | |||
| 2025-11-05T12:16 | 15795 | 111 | 250 | 39 | ||
| 2025-11-05T12:17 | 15902 | 109 | -64.0 | |||
| 2025-11-05T12:17 | 16107 | 105 | 254 | 40 | ||
| 2025-11-05T12:18 | 16333 | 101 | -65.2 | |||
| 2025-11-05T12:18 | 16470 | 99 | 259 | 47 | ||
| 2025-11-05T12:19 | 16634 | 96 | 265 | 46 | ||
| 2025-11-05T12:19 | 16776 | 94 | -66.2 | |||
| 2025-11-05T12:19 | 16827 | 93 | 264 | 39 | ||
| 2025-11-05T12:20 | 17044 | 90 | 271 | 36 | ||
| 2025-11-05T12:20 | 17195 | 88 | -65.2 | |||
| 2025-11-05T12:20 | 17236 | 87 | 267 | 33 | ||
| 2025-11-05T12:21 | 17510 | 83 | -66.9 | |||
| 2025-11-05T12:21 | 17526 | 83 | 264 | 35 | ||
| 2025-11-05T12:22 | 17794 | 80 | 272 | 32 | ||
| 2025-11-05T12:22 | 17934 | 78 | 262 | 27 | ||
| 2025-11-05T12:23 | 18038 | 77 | -63.5 | |||
| 2025-11-05T12:23 | 18142 | 75 | 279 | 32 | ||
| 2025-11-05T12:24 | 18452 | 72 | 272 | 20 | ||
| 2025-11-05T12:25 | 18630 | 70 | -62.0 | |||
| 2025-11-05T12:25 | 18708 | 69 | 255 | 19 | ||
| 2025-11-05T12:25 | 18781 | 68 | -61.9 | |||
| 2025-11-05T12:26 | 18948 | 66 | 249 | 21 | ||
| 2025-11-05T12:27 | 19107 | 64 | -63.0 | |||
| 2025-11-05T12:27 | 19117 | 64 | 262 | 24 | ||
| 2025-11-05T12:27 | 19243 | 63 | 269 | 19 | ||
| 2025-11-05T12:27 | 19254 | 63 | -61.2 | |||
| 2025-11-05T12:28 | 19465 | 61 | 275 | 23 | ||
| 2025-11-05T12:29 | 19609 | 59 | -60.5 | |||
| 2025-11-05T12:29 | 19641 | 59 | 277 | 21 | ||
| 2025-11-05T12:30 | 19867 | 57 | 276 | 18 | ||
| 2025-11-05T12:30 | 19955 | 56 | -60.6 | |||
| 2025-11-05T12:31 | 20045 | 55 | 264 | 16 | ||
| 2025-11-05T12:32 | 20204 | 54 | 274 | 13 | ||
| 2025-11-05T12:33 | 20308 | 53 | 269 | 12 | ||
| 2025-11-05T12:33 | 20439 | 52 | -59.3 | |||
| 2025-11-05T12:34 | 20488 | 52 | 250 | 13 | ||
| 2025-11-05T12:35 | 20647 | 50 | 239 | 15 | ||
| 2025-11-05T12:35 | 20684 | 50 | -59.6 | |||
| 2025-11-05T12:36 | 20773 | 49 | 247 | 18 | ||
| 2025-11-05T12:37 | 20864 | 49 | 252 | 20 | ||
| 2025-11-05T12:38 | 20942 | 48 | 256 | 20 | ||
| 2025-11-05T12:39 | 21033 | 47 | 262 | 21 | ||
| 2025-11-05T12:40 | 21118 | 47 | -61.6 | 261 | 23 | |
| 2025-11-05T23:33 | 26 | 1017 | 12.7 | 10.4 | 300 | 2 |
| 2025-11-05T23:33 | 30 | 1016 | 13.0 | 10.4 | 0 | 0 |
| 2025-11-05T23:33 | 69 | 1012 | 295 | 3 | ||
| 2025-11-05T23:33 | 115 | 1006 | 12.2 | 8.9 | ||
| 2025-11-05T23:33 | 157 | 1001 | 13.2 | 9.1 | ||
| 2025-11-05T23:34 | 232 | 992 | 14.1 | 9.1 | ||
| 2025-11-05T23:34 | 261 | 989 | 32 | 9 | ||
| 2025-11-05T23:34 | 511 | 960 | 12.2 | 8.7 | ||
| 2025-11-05T23:35 | 578 | 952 | 51 | 15 | ||
| 2025-11-05T23:35 | 612 | 948 | 12.5 | 10.0 | ||
| 2025-11-05T23:35 | 657 | 943 | 13.0 | 10.5 | ||
| 2025-11-05T23:35 | 760 | 932 | 60 | 10 | ||
| 2025-11-05T23:36 | 956 | 910 | 41 | 8 | ||
| 2025-11-05T23:36 | 962 | 909 | 10.9 | 9.0 | ||
| 2025-11-05T23:36 | 1034 | 902 | 10.3 | 8.7 | ||
| 2025-11-05T23:36 | 1110 | 893 | 51 | 7 | ||
| 2025-11-05T23:36 | 1196 | 884 | 9.1 | 8.3 | ||
| 2025-11-05T23:37 | 1284 | 875 | 8.7 | 6.1 | ||
| 2025-11-05T23:37 | 1305 | 873 | 38 | 5 | ||
| 2025-11-05T23:37 | 1449 | 858 | 7.4 | 6.5 | 52 | 7 |
| 2025-11-05T23:38 | 1534 | 849 | 6.6 | 5.2 | ||
| 2025-11-05T23:38 | 1577 | 844 | 70 | 6 | ||
| 2025-11-05T23:38 | 1582 | 844 | 6.0 | 6.0 | ||
| 2025-11-05T23:38 | 1767 | 825 | 68 | 7 | ||
| 2025-11-05T23:39 | 1913 | 810 | 4.0 | 4.0 | ||
| 2025-11-05T23:39 | 1942 | 808 | 75 | 6 | ||
| 2025-11-05T23:39 | 2051 | 797 | 73 | 7 | ||
| 2025-11-05T23:40 | 2210 | 781 | 71 | 7 | ||
| 2025-11-05T23:40 | 2305 | 772 | 2.5 | 2.5 | ||
| 2025-11-05T23:41 | 2533 | 751 | 93 | 5 | ||
| 2025-11-05T23:41 | 2665 | 739 | 91 | 4 | ||
| 2025-11-05T23:41 | 2736 | 732 | 66 | 3 | ||
| 2025-11-05T23:41 | 2824 | 724 | 100 | 4 | ||
| 2025-11-05T23:42 | 2917 | 716 | 79 | 3 | ||
| 2025-11-05T23:42 | 2999 | 708 | 36 | 5 | ||
| 2025-11-05T23:42 | 3058 | 703 | -1.4 | -1.4 | 65 | 2 |
| 2025-11-05T23:43 | 3247 | 687 | 147 | 4 | ||
| 2025-11-05T23:43 | 3346 | 678 | 161 | 6 | ||
| 2025-11-05T23:43 | 3446 | 670 | -3.7 | -3.7 | ||
| 2025-11-05T23:43 | 3497 | 665 | 163 | 4 | ||
| 2025-11-05T23:44 | 3595 | 657 | 213 | 2 | ||
| 2025-11-05T23:44 | 3657 | 652 | -5.7 | -6.4 | ||
| 2025-11-05T23:44 | 3690 | 649 | -6.0 | -10.4 | ||
| 2025-11-05T23:44 | 3723 | 646 | -6.4 | -18.7 | ||
| 2025-11-05T23:44 | 3781 | 642 | 18 | 5 | ||
| 2025-11-05T23:44 | 3791 | 641 | -7.0 | -25.2 | ||
| 2025-11-05T23:44 | 3822 | 638 | -6.8 | -24.5 | ||
| 2025-11-05T23:45 | 3847 | 636 | 13 | 4 | ||
| 2025-11-05T23:45 | 3916 | 631 | -5.9 | -25.9 | 334 | 5 |
| 2025-11-05T23:45 | 3940 | 629 | -4.4 | -26.5 | ||
| 2025-11-05T23:45 | 4098 | 616 | 324 | 4 | ||
| 2025-11-05T23:46 | 4230 | 606 | 12 | 1 | ||
| 2025-11-05T23:46 | 4309 | 600 | 328 | 3 | ||
| 2025-11-05T23:47 | 4454 | 589 | 300 | 3 | ||
| 2025-11-05T23:47 | 4494 | 586 | -7.5 | -34.0 | ||
| 2025-11-05T23:47 | 4572 | 580 | 285 | 5 | ||
| 2025-11-05T23:47 | 4693 | 571 | 286 | 6 | ||
| 2025-11-05T23:48 | 4816 | 562 | -9.6 | -40.6 |
Only the first 2000 rows were shown. To view the complete dataset, download it as tab-delimited text. You can still view the full matrix in your browser, but be aware that this may crash the browser due to the huge size.
